QFA11 YSSY-KLAX
Flight info
| Callsign | QFA11 |
|---|---|
| Flight time | N/A |
| Altitude | 33000 |
| Route | DIPSO G595 SOTKI DCT UBLIN A579 TANIL DCT NN B581 WOOBY DCT QUIGG B577 SANTA/N0484F370 B577 BELAN/N0479F390 B577 FICKY GOATZ2 |
| Aircraft | A388/J-SADE2E3FGHIJ3J4J5M1RWXY/LB1D1 |
Departure
| Time | 2026-05-06 23:22 |
|---|---|
| Airport | Sydney Kingsford Smith International Airport (YSSY) |
Arrival
| Time | N/A |
|---|---|
| Airport | Los Angeles International Airport (KLAX) |
| Time | Latitude | Longitude | Altitude | Speed | Heading |
|---|---|---|---|---|---|
| 2026-05-06 22:35 | -33.93476 | 151.16805 | 35 ft | 0 kts | 258° |
| 2026-05-06 22:59 | -33.93479 | 151.16810 | 35 ft | 0 kts | 312° |
| 2026-05-06 23:01 | -33.93481 | 151.16813 | 35 ft | 2 kts | 308° |
| 2026-05-06 23:01 | -33.93487 | 151.16832 | 34 ft | 2 kts | 280° |
| 2026-05-06 23:01 | -33.93485 | 151.16851 | 34 ft | 2 kts | 255° |
| 2026-05-06 23:01 | -33.93478 | 151.16869 | 31 ft | 2 kts | 238° |
| 2026-05-06 23:02 | -33.93467 | 151.16884 | 31 ft | 2 kts | 225° |
| 2026-05-06 23:02 | -33.93454 | 151.16896 | 32 ft | 2 kts | 213° |
| 2026-05-06 23:02 | -33.93443 | 151.16902 | 34 ft | 1 kts | 195° |
| 2026-05-06 23:02 | -33.93440 | 151.16902 | 33 ft | 0 kts | 189° |
| 2026-05-06 23:13 | -33.93455 | 151.16899 | 35 ft | 4 kts | 188° |
| 2026-05-06 23:14 | -33.93494 | 151.16903 | 35 ft | 7 kts | 169° |
| 2026-05-06 23:14 | -33.93518 | 151.16925 | 35 ft | 5 kts | 120° |
| 2026-05-06 23:14 | -33.93522 | 151.16951 | 35 ft | 3 kts | 68° |
| 2026-05-06 23:14 | -33.93510 | 151.16989 | 35 ft | 6 kts | 69° |
| 2026-05-06 23:15 | -33.93497 | 151.17048 | 35 ft | 8 kts | 85° |
| 2026-05-06 23:15 | -33.93516 | 151.17112 | 34 ft | 8 kts | 144° |
| 2026-05-06 23:15 | -33.93559 | 151.17119 | 34 ft | 8 kts | 175° |
| 2026-05-06 23:15 | -33.93622 | 151.17133 | 34 ft | 11 kts | 169° |
| 2026-05-06 23:16 | -33.93674 | 151.17146 | 34 ft | 13 kts | 165° |
| 2026-05-06 23:16 | -33.93768 | 151.17173 | 34 ft | 15 kts | 168° |
| 2026-05-06 23:16 | -33.93880 | 151.17200 | 34 ft | 17 kts | 169° |
| 2026-05-06 23:16 | -33.94004 | 151.17231 | 34 ft | 19 kts | 167° |
| 2026-05-06 23:17 | -33.94138 | 151.17265 | 33 ft | 21 kts | 168° |
| 2026-05-06 23:17 | -33.94279 | 151.17304 | 35 ft | 21 kts | 167° |
| 2026-05-06 23:17 | -33.94425 | 151.17344 | 35 ft | 22 kts | 169° |
| 2026-05-06 23:17 | -33.94577 | 151.17381 | 35 ft | 23 kts | 167° |
| 2026-05-06 23:18 | -33.94735 | 151.17422 | 35 ft | 24 kts | 168° |
| 2026-05-06 23:18 | -33.94899 | 151.17465 | 34 ft | 25 kts | 168° |
| 2026-05-06 23:18 | -33.95069 | 151.17508 | 34 ft | 25 kts | 167° |
| 2026-05-06 23:18 | -33.95244 | 151.17551 | 34 ft | 26 kts | 167° |
| 2026-05-06 23:19 | -33.95418 | 151.17601 | 34 ft | 26 kts | 166° |
| 2026-05-06 23:19 | -33.95592 | 151.17646 | 35 ft | 25 kts | 168° |
| 2026-05-06 23:19 | -33.95767 | 151.17690 | 35 ft | 26 kts | 168° |
| 2026-05-06 23:19 | -33.95945 | 151.17734 | 35 ft | 26 kts | 169° |
| 2026-05-06 23:20 | -33.96122 | 151.17784 | 35 ft | 26 kts | 165° |
| 2026-05-06 23:20 | -33.96303 | 151.17831 | 35 ft | 26 kts | 171° |
| 2026-05-06 23:20 | -33.96415 | 151.17867 | 35 ft | 15 kts | 139° |
| 2026-05-06 23:20 | -33.96428 | 151.17981 | 35 ft | 15 kts | 79° |
| 2026-05-06 23:21 | -33.96380 | 151.18049 | 35 ft | 10 kts | 358° |
| 2026-05-06 23:21 | -33.96302 | 151.18032 | 34 ft | 22 kts | 348° |
| 2026-05-06 23:21 | -33.95931 | 151.17935 | 33 ft | 88 kts | 347° |
| 2026-05-06 23:21 | -33.95147 | 151.17731 | 33 ft | 139 kts | 347° |
| 2026-05-06 23:22 | -33.94086 | 151.17461 | 51 ft | 169 kts | 347° |
| 2026-05-06 23:22 | -33.93027 | 151.17218 | 447 ft | 167 kts | 348° |
| 2026-05-06 23:22 | -33.91887 | 151.17005 | 799 ft | 176 kts | 348° |
| 2026-05-06 23:22 | -33.90652 | 151.16813 | 1214 ft | 180 kts | 348° |
| 2026-05-06 23:23 | -33.89390 | 151.16984 | 1505 ft | 196 kts | 24° |
| 2026-05-06 23:23 | -33.88358 | 151.18128 | 1809 ft | 209 kts | 60° |
| 2026-05-06 23:23 | -33.88004 | 151.19848 | 1920 ft | 218 kts | 91° |
| 2026-05-06 23:23 | -33.88010 | 151.21726 | 2051 ft | 230 kts | 92° |
| 2026-05-06 23:24 | -33.88029 | 151.23691 | 2139 ft | 246 kts | 92° |
| 2026-05-06 23:24 | -33.88044 | 151.25843 | 2347 ft | 266 kts | 92° |
| 2026-05-06 23:24 | -33.88056 | 151.28149 | 2699 ft | 281 kts | 91° |
| 2026-05-06 23:24 | -33.88069 | 151.30521 | 3261 ft | 287 kts | 92° |
| 2026-05-06 23:25 | -33.88083 | 151.32901 | 3863 ft | 289 kts | 92° |
| 2026-05-06 23:25 | -33.88097 | 151.35358 | 4386 ft | 297 kts | 92° |
| 2026-05-06 23:25 | -33.88112 | 151.37841 | 5065 ft | 298 kts | 91° |
| 2026-05-06 23:25 | -33.88127 | 151.40340 | 5721 ft | 298 kts | 90° |
| 2026-05-06 23:26 | -33.88141 | 151.42827 | 6415 ft | 298 kts | 90° |
| 2026-05-06 23:26 | -33.88154 | 151.45338 | 6985 ft | 302 kts | 89° |
| 2026-05-06 23:26 | -33.88167 | 151.47876 | 7546 ft | 305 kts | 89° |
| 2026-05-06 23:26 | -33.88180 | 151.50442 | 8106 ft | 308 kts | 88° |
| 2026-05-06 23:27 | -33.88192 | 151.53032 | 8695 ft | 311 kts | 88° |
| 2026-05-06 23:27 | -33.88203 | 151.55652 | 9250 ft | 315 kts | 87° |
| 2026-05-06 23:27 | -33.88214 | 151.58298 | 9805 ft | 318 kts | 87° |
| 2026-05-06 23:27 | -33.88224 | 151.60982 | 10238 ft | 326 kts | 87° |
| 2026-05-06 23:28 | -33.88231 | 151.63772 | 10396 ft | 341 kts | 87° |
| 2026-05-06 23:28 | -33.88240 | 151.66694 | 10564 ft | 356 kts | 87° |
| 2026-05-06 23:28 | -33.88249 | 151.69726 | 10738 ft | 369 kts | 87° |
| 2026-05-06 23:28 | -33.88260 | 151.72841 | 11154 ft | 374 kts | 87° |
| 2026-05-06 23:29 | -33.88271 | 151.75982 | 11608 ft | 378 kts | 87° |
| 2026-05-06 23:29 | -33.88281 | 151.79159 | 12057 ft | 382 kts | 87° |
| 2026-05-06 23:29 | -33.88289 | 151.82371 | 12495 ft | 386 kts | 87° |
| 2026-05-06 23:29 | -33.88296 | 151.85619 | 12944 ft | 390 kts | 87° |
| 2026-05-06 23:30 | -33.88302 | 151.88907 | 13395 ft | 394 kts | 87° |
| 2026-05-06 23:30 | -33.88307 | 151.92177 | 13837 ft | 398 kts | 87° |
| 2026-05-06 23:30 | -33.88312 | 151.95514 | 14280 ft | 400 kts | 87° |
| 2026-05-06 23:30 | -33.88315 | 151.98871 | 14695 ft | 403 kts | 86° |
| 2026-05-06 23:31 | -33.88318 | 152.02262 | 15110 ft | 406 kts | 86° |
| 2026-05-06 23:31 | -33.88319 | 152.05675 | 15524 ft | 409 kts | 86° |
| 2026-05-06 23:31 | -33.88319 | 152.09105 | 15909 ft | 411 kts | 87° |
| 2026-05-06 23:31 | -33.88319 | 152.12559 | 16350 ft | 413 kts | 86° |
| 2026-05-06 23:32 | -33.88318 | 152.16030 | 16737 ft | 417 kts | 86° |
| 2026-05-06 23:32 | -33.88315 | 152.19532 | 17137 ft | 419 kts | 86° |
| 2026-05-06 23:32 | -33.88312 | 152.23047 | 17524 ft | 422 kts | 86° |
| 2026-05-06 23:32 | -33.88307 | 152.26593 | 17910 ft | 425 kts | 86° |
| 2026-05-06 23:33 | -33.88302 | 152.30164 | 18291 ft | 428 kts | 86° |
| 2026-05-06 23:33 | -33.88296 | 152.33753 | 18633 ft | 430 kts | 86° |
| 2026-05-06 23:33 | -33.88288 | 152.37313 | 18952 ft | 432 kts | 86° |
| 2026-05-06 23:33 | -33.88279 | 152.40944 | 19271 ft | 435 kts | 85° |
| 2026-05-06 23:34 | -33.88269 | 152.44594 | 19593 ft | 437 kts | 85° |
| 2026-05-06 23:34 | -33.88258 | 152.48264 | 19916 ft | 440 kts | 85° |
| 2026-05-06 23:34 | -33.88246 | 152.51962 | 20241 ft | 442 kts | 85° |
| 2026-05-06 23:34 | -33.88234 | 152.55656 | 20692 ft | 440 kts | 85° |
| 2026-05-06 23:35 | -33.88220 | 152.59353 | 20983 ft | 444 kts | 85° |
| 2026-05-06 23:35 | -33.88204 | 152.63073 | 21286 ft | 446 kts | 85° |
| 2026-05-06 23:35 | -33.88186 | 152.66819 | 21580 ft | 448 kts | 85° |
| 2026-05-06 23:35 | -33.88168 | 152.70582 | 21897 ft | 451 kts | 85° |
| 2026-05-06 23:36 | -33.88149 | 152.74368 | 22196 ft | 453 kts | 84° |
| 2026-05-06 23:36 | -33.88128 | 152.78171 | 22494 ft | 456 kts | 84° |
| 2026-05-06 23:36 | -33.88106 | 152.82000 | 22792 ft | 458 kts | 84° |
| 2026-05-06 23:36 | -33.88084 | 152.85836 | 23168 ft | 458 kts | 84° |
| 2026-05-06 23:37 | -33.88060 | 152.89682 | 23427 ft | 461 kts | 84° |
| 2026-05-06 23:37 | -33.88034 | 152.93552 | 23699 ft | 463 kts | 84° |
| 2026-05-06 23:37 | -33.88007 | 152.97389 | 23936 ft | 466 kts | 84° |
| 2026-05-06 23:37 | -33.87978 | 153.01344 | 24174 ft | 468 kts | 84° |
| 2026-05-06 23:38 | -33.87948 | 153.05227 | 24368 ft | 471 kts | 84° |
| 2026-05-06 23:38 | -33.87917 | 153.09183 | 24572 ft | 474 kts | 84° |
| 2026-05-06 23:38 | -33.87884 | 153.13161 | 24829 ft | 476 kts | 84° |
| 2026-05-06 23:38 | -33.87851 | 153.17143 | 25080 ft | 478 kts | 84° |
| 2026-05-06 23:39 | -33.87815 | 153.21153 | 25325 ft | 480 kts | 84° |
| 2026-05-06 23:39 | -33.87778 | 153.25176 | 25599 ft | 482 kts | 84° |
| 2026-05-06 23:39 | -33.87740 | 153.29226 | 25857 ft | 484 kts | 84° |
| 2026-05-06 23:39 | -33.87700 | 153.33299 | 26119 ft | 487 kts | 84° |
| 2026-05-06 23:40 | -33.87659 | 153.37378 | 26390 ft | 489 kts | 84° |
| 2026-05-06 23:40 | -33.87617 | 153.41435 | 26661 ft | 492 kts | 83° |
| 2026-05-06 23:40 | -33.87573 | 153.45553 | 26968 ft | 493 kts | 83° |
| 2026-05-06 23:40 | -33.87528 | 153.49686 | 27286 ft | 495 kts | 83° |
| 2026-05-06 23:41 | -33.87480 | 153.53844 | 27558 ft | 498 kts | 83° |
| 2026-05-06 23:41 | -33.87430 | 153.58021 | 27850 ft | 500 kts | 83° |
| 2026-05-06 23:41 | -33.87379 | 153.62216 | 28146 ft | 503 kts | 83° |
| 2026-05-06 23:41 | -33.87326 | 153.66433 | 28443 ft | 505 kts | 83° |
| 2026-05-06 23:42 | -33.87271 | 153.70685 | 28730 ft | 508 kts | 83° |
| 2026-05-06 23:42 | -33.87215 | 153.74942 | 28992 ft | 510 kts | 83° |
| 2026-05-06 23:42 | -33.87158 | 153.79205 | 29409 ft | 510 kts | 83° |
| 2026-05-06 23:42 | -33.87099 | 153.83491 | 29665 ft | 514 kts | 83° |
| 2026-05-06 23:43 | -33.87037 | 153.87806 | 29964 ft | 516 kts | 83° |
| 2026-05-06 23:43 | -33.86974 | 153.92086 | 30224 ft | 519 kts | 83° |
| 2026-05-06 23:43 | -33.86910 | 153.96433 | 30484 ft | 521 kts | 83° |
| 2026-05-06 23:43 | -33.86843 | 154.00802 | 30727 ft | 524 kts | 83° |
| 2026-05-06 23:44 | -33.86774 | 154.05196 | 30971 ft | 525 kts | 83° |
| 2026-05-06 23:44 | -33.86705 | 154.09591 | 31327 ft | 525 kts | 83° |
| 2026-05-06 23:44 | -33.86633 | 154.13993 | 31536 ft | 528 kts | 83° |
| 2026-05-06 23:44 | -33.86559 | 154.18427 | 31779 ft | 531 kts | 83° |
| 2026-05-06 23:45 | -33.86483 | 154.22896 | 32030 ft | 533 kts | 83° |
| 2026-05-06 23:45 | -33.86405 | 154.27358 | 32267 ft | 535 kts | 83° |
| 2026-05-06 23:45 | -33.86325 | 154.31851 | 32513 ft | 537 kts | 83° |
| 2026-05-06 23:45 | -33.86243 | 154.36358 | 32728 ft | 540 kts | 84° |
| 2026-05-06 23:46 | -33.86162 | 154.40788 | 33030 ft | 541 kts | 84° |
| 2026-05-06 23:46 | -33.85983 | 154.49975 | 32947 ft | 558 kts | 84° |
| 2026-05-06 23:47 | -33.85800 | 154.59312 | 32950 ft | 559 kts | 84° |
| 2026-05-06 23:47 | -33.85611 | 154.68681 | 32936 ft | 559 kts | 84° |
| 2026-05-06 23:48 | -33.85413 | 154.78018 | 32940 ft | 558 kts | 84° |
| 2026-05-06 23:48 | -33.85206 | 154.87365 | 32941 ft | 558 kts | 83° |
| 2026-05-06 23:49 | -33.84993 | 154.96691 | 32945 ft | 558 kts | 83° |
| 2026-05-06 23:49 | -33.84776 | 155.05947 | 32948 ft | 556 kts | 84° |
| 2026-05-06 23:50 | -33.84265 | 155.15179 | 32944 ft | 547 kts | 72° |
| 2026-05-06 23:50 | -33.81583 | 155.23521 | 32928 ft | 525 kts | 50° |
| 2026-05-06 23:50 | -33.79463 | 155.26945 | 32935 ft | 513 kts | 40° |
| 2026-05-06 23:51 | -33.74584 | 155.33162 | 32931 ft | 511 kts | 39° |
| 2026-05-06 23:51 | -33.69890 | 155.39631 | 32932 ft | 515 kts | 43° |
| 2026-05-06 23:52 | -33.65327 | 155.46261 | 32937 ft | 515 kts | 43° |
| 2026-05-06 23:52 | -33.60738 | 155.52875 | 32940 ft | 516 kts | 43° |
| 2026-05-06 23:53 | -33.56119 | 155.59486 | 32948 ft | 516 kts | 42° |
| 2026-05-06 23:53 | -33.51503 | 155.66076 | 32948 ft | 516 kts | 43° |
| 2026-05-06 23:54 | -33.46876 | 155.72671 | 32968 ft | 517 kts | 43° |
| 2026-05-06 23:54 | -33.42273 | 155.79221 | 32972 ft | 517 kts | 43° |
| 2026-05-06 23:55 | -33.37637 | 155.85799 | 32972 ft | 517 kts | 43° |
| 2026-05-06 23:55 | -33.32994 | 155.92373 | 32967 ft | 517 kts | 42° |
| 2026-05-06 23:56 | -33.28356 | 155.98926 | 32956 ft | 516 kts | 43° |
| 2026-05-06 23:56 | -33.23713 | 156.05477 | 32963 ft | 516 kts | 43° |
| 2026-05-06 23:57 | -33.19068 | 156.12018 | 32966 ft | 517 kts | 43° |
| 2026-05-06 23:57 | -33.14410 | 156.18566 | 32972 ft | 517 kts | 43° |
| 2026-05-06 23:58 | -33.09750 | 156.25105 | 32954 ft | 517 kts | 43° |
| 2026-05-06 23:58 | -33.05118 | 156.31593 | 32968 ft | 517 kts | 43° |
| 2026-05-06 23:59 | -33.00440 | 156.38133 | 32978 ft | 518 kts | 43° |
| 2026-05-06 23:59 | -32.95758 | 156.44668 | 32982 ft | 518 kts | 43° |
| 2026-05-07 00:00 | -32.91076 | 156.51190 | 32977 ft | 519 kts | 43° |
| 2026-05-07 00:00 | -32.87180 | 156.56609 | 32982 ft | 519 kts | 43° |
| 2026-05-07 00:01 | -32.81844 | 156.64018 | 32989 ft | 519 kts | 43° |
| 2026-05-07 00:01 | -32.77140 | 156.70537 | 32996 ft | 520 kts | 43° |
| 2026-05-07 00:02 | -32.72454 | 156.77019 | 32979 ft | 520 kts | 43° |
| 2026-05-07 00:02 | -32.67734 | 156.83536 | 32984 ft | 521 kts | 43° |
| 2026-05-07 00:03 | -32.63004 | 156.90057 | 32981 ft | 521 kts | 43° |
| 2026-05-07 00:03 | -32.58272 | 156.96569 | 33002 ft | 521 kts | 43° |
| 2026-05-07 00:04 | -32.53540 | 157.03068 | 32973 ft | 521 kts | 42° |
| 2026-05-07 00:04 | -32.49595 | 157.08478 | 32986 ft | 521 kts | 42° |
| 2026-05-07 00:05 | -32.44849 | 157.14975 | 32994 ft | 522 kts | 42° |
| 2026-05-07 00:05 | -32.39319 | 157.22533 | 32990 ft | 522 kts | 42° |
| 2026-05-07 00:06 | -32.35359 | 157.27935 | 33007 ft | 522 kts | 42° |
| 2026-05-07 00:06 | -32.30584 | 157.34438 | 32991 ft | 523 kts | 41° |
| 2026-05-07 00:07 | -32.25806 | 157.40934 | 32998 ft | 524 kts | 41° |
| 2026-05-07 00:07 | -32.21015 | 157.47437 | 33025 ft | 525 kts | 41° |
| 2026-05-07 00:08 | -32.16208 | 157.53950 | 33012 ft | 525 kts | 41° |
| 2026-05-07 00:08 | -32.11401 | 157.60452 | 33002 ft | 526 kts | 41° |
| 2026-05-07 00:09 | -32.06618 | 157.66909 | 33012 ft | 527 kts | 41° |
| 2026-05-07 00:09 | -32.01789 | 157.73417 | 33019 ft | 528 kts | 41° |
| 2026-05-07 00:10 | -31.96948 | 157.79930 | 33023 ft | 528 kts | 41° |
| 2026-05-07 00:10 | -31.92095 | 157.86450 | 32995 ft | 529 kts | 40° |
| 2026-05-07 00:11 | -31.87234 | 157.92966 | 33007 ft | 530 kts | 41° |
| 2026-05-07 00:11 | -31.82364 | 157.99484 | 33013 ft | 530 kts | 40° |
| 2026-05-07 00:12 | -31.77486 | 158.06001 | 33024 ft | 531 kts | 40° |
| 2026-05-07 00:12 | -31.72632 | 158.12477 | 32986 ft | 532 kts | 40° |
| 2026-05-07 00:13 | -31.67729 | 158.19004 | 33017 ft | 533 kts | 40° |
| 2026-05-07 00:13 | -31.62819 | 158.25530 | 33020 ft | 534 kts | 40° |
| 2026-05-07 00:14 | -31.57886 | 158.32076 | 33022 ft | 535 kts | 40° |
| 2026-05-07 00:14 | -31.52956 | 158.38607 | 33035 ft | 535 kts | 40° |
| 2026-05-07 00:15 | -31.48010 | 158.45146 | 33042 ft | 536 kts | 40° |
| 2026-05-07 00:15 | -31.43100 | 158.51628 | 33039 ft | 535 kts | 40° |
| 2026-05-07 00:16 | -31.38150 | 158.58152 | 33036 ft | 535 kts | 40° |
| 2026-05-07 00:16 | -31.33207 | 158.64655 | 33039 ft | 535 kts | 40° |
| 2026-05-07 00:17 | -31.28260 | 158.71152 | 33002 ft | 535 kts | 39° |
| 2026-05-07 00:17 | -31.23301 | 158.77651 | 33008 ft | 536 kts | 39° |
| 2026-05-07 00:18 | -31.18329 | 158.84159 | 33020 ft | 537 kts | 39° |
| 2026-05-07 00:18 | -31.13377 | 158.90629 | 33033 ft | 538 kts | 40° |
| 2026-05-07 00:19 | -31.08383 | 158.97144 | 33016 ft | 539 kts | 39° |
| 2026-05-07 00:19 | -31.03366 | 159.03676 | 33030 ft | 541 kts | 39° |
| 2026-05-07 00:20 | -30.98345 | 159.10202 | 33039 ft | 542 kts | 39° |
| 2026-05-07 00:20 | -30.93304 | 159.16744 | 33046 ft | 543 kts | 39° |
| 2026-05-07 00:21 | -30.88249 | 159.23294 | 33011 ft | 543 kts | 39° |
| 2026-05-07 00:21 | -30.83190 | 159.29836 | 33027 ft | 544 kts | 39° |
| 2026-05-07 00:22 | -30.78152 | 159.36340 | 33032 ft | 545 kts | 39° |
| 2026-05-07 00:22 | -30.73074 | 159.42884 | 33043 ft | 546 kts | 39° |
| 2026-05-07 00:23 | -30.67980 | 159.49439 | 33050 ft | 546 kts | 39° |
| 2026-05-07 00:23 | -30.62881 | 159.55989 | 33029 ft | 547 kts | 39° |
| 2026-05-07 00:24 | -30.57764 | 159.62550 | 33037 ft | 548 kts | 38° |
| 2026-05-07 00:24 | -30.52639 | 159.69111 | 33045 ft | 549 kts | 38° |
| 2026-05-07 00:25 | -30.47505 | 159.75672 | 33050 ft | 549 kts | 38° |
| 2026-05-07 00:25 | -30.42371 | 159.82224 | 33029 ft | 549 kts | 38° |
| 2026-05-07 00:26 | -30.37256 | 159.88735 | 33039 ft | 550 kts | 38° |
| 2026-05-07 00:26 | -30.32095 | 159.95298 | 33049 ft | 551 kts | 38° |
| 2026-05-07 00:27 | -30.26933 | 160.01851 | 33054 ft | 551 kts | 38° |
| 2026-05-07 00:27 | -30.21762 | 160.08405 | 33024 ft | 551 kts | 38° |
| 2026-05-07 00:28 | -30.16585 | 160.14954 | 33038 ft | 552 kts | 38° |
| 2026-05-07 00:28 | -30.11392 | 160.21512 | 33034 ft | 553 kts | 38° |
| 2026-05-07 00:29 | -30.06187 | 160.28075 | 33043 ft | 554 kts | 38° |
| 2026-05-07 00:30 | -29.95753 | 160.41197 | 33045 ft | 555 kts | 38° |
| 2026-05-07 00:30 | -29.90557 | 160.47716 | 33053 ft | 556 kts | 38° |
| 2026-05-07 00:31 | -29.85312 | 160.54286 | 33045 ft | 556 kts | 38° |
| 2026-05-07 00:31 | -29.80066 | 160.60845 | 33048 ft | 557 kts | 38° |
| 2026-05-07 00:32 | -29.74806 | 160.67411 | 33041 ft | 557 kts | 38° |
| 2026-05-07 00:32 | -29.69551 | 160.73960 | 33048 ft | 557 kts | 38° |
| 2026-05-07 00:33 | -29.64318 | 160.80470 | 33052 ft | 557 kts | 38° |
| 2026-05-07 00:33 | -29.59046 | 160.87018 | 33054 ft | 557 kts | 38° |
| 2026-05-07 00:34 | -29.53776 | 160.93552 | 33023 ft | 557 kts | 39° |
| 2026-05-07 00:34 | -29.48509 | 161.00073 | 33037 ft | 557 kts | 39° |
| 2026-05-07 00:35 | -29.43268 | 161.06551 | 33044 ft | 557 kts | 38° |
| 2026-05-07 00:35 | -29.37981 | 161.13074 | 33044 ft | 557 kts | 38° |
| 2026-05-07 00:36 | -29.32693 | 161.19589 | 33048 ft | 558 kts | 38° |
| 2026-05-07 00:36 | -29.27401 | 161.26097 | 33044 ft | 558 kts | 39° |
| 2026-05-07 00:37 | -29.22106 | 161.32599 | 33043 ft | 558 kts | 39° |
| 2026-05-07 00:37 | -29.16839 | 161.39056 | 33049 ft | 558 kts | 39° |
| 2026-05-07 00:38 | -29.11533 | 161.45550 | 33051 ft | 559 kts | 38° |
| 2026-05-07 00:38 | -29.06213 | 161.52050 | 33035 ft | 558 kts | 39° |
| 2026-05-07 00:39 | -29.00897 | 161.58535 | 33038 ft | 559 kts | 39° |
| 2026-05-07 00:39 | -28.95581 | 161.65011 | 33042 ft | 560 kts | 39° |
| 2026-05-07 00:40 | -28.90246 | 161.71498 | 33051 ft | 560 kts | 39° |
| 2026-05-07 00:40 | -28.84940 | 161.77940 | 33015 ft | 560 kts | 39° |
| 2026-05-07 00:41 | -28.79594 | 161.84419 | 33043 ft | 561 kts | 39° |
| 2026-05-07 00:41 | -28.74243 | 161.90895 | 33048 ft | 561 kts | 39° |
| 2026-05-07 00:42 | -28.68890 | 161.97364 | 33052 ft | 561 kts | 39° |
| 2026-05-07 00:42 | -28.63529 | 162.03831 | 33060 ft | 562 kts | 39° |
| 2026-05-07 00:43 | -28.58158 | 162.10300 | 33052 ft | 561 kts | 39° |
| 2026-05-07 00:43 | -28.52787 | 162.16758 | 33054 ft | 561 kts | 39° |
| 2026-05-07 00:44 | -28.47416 | 162.23206 | 33055 ft | 561 kts | 39° |
| 2026-05-07 00:44 | -28.42082 | 162.29600 | 33053 ft | 561 kts | 39° |
| 2026-05-07 00:45 | -28.36703 | 162.36038 | 33027 ft | 561 kts | 39° |
| 2026-05-07 00:45 | -28.31323 | 162.42467 | 33045 ft | 561 kts | 39° |
| 2026-05-07 00:46 | -28.25937 | 162.48892 | 33047 ft | 561 kts | 39° |
| 2026-05-07 00:46 | -28.20556 | 162.55302 | 33055 ft | 562 kts | 39° |
| 2026-05-07 00:47 | -28.15156 | 162.61724 | 33056 ft | 562 kts | 39° |
| 2026-05-07 00:47 | -28.09763 | 162.68128 | 33062 ft | 561 kts | 39° |
| 2026-05-07 00:48 | -28.04375 | 162.74521 | 33054 ft | 561 kts | 39° |
| 2026-05-07 00:48 | -27.99013 | 162.80876 | 33056 ft | 561 kts | 39° |
| 2026-05-07 00:49 | -27.93612 | 162.87266 | 33053 ft | 561 kts | 39° |
| 2026-05-07 00:49 | -27.88213 | 162.93645 | 33053 ft | 561 kts | 39° |
| 2026-05-07 00:50 | -27.82823 | 163.00051 | 33034 ft | 564 kts | 44° |
| 2026-05-07 00:50 | -27.78222 | 163.07330 | 33042 ft | 572 kts | 51° |
| 2026-05-07 00:51 | -27.73775 | 163.14783 | 33054 ft | 572 kts | 50° |
| 2026-05-07 00:51 | -27.69288 | 163.22197 | 33058 ft | 573 kts | 50° |
| 2026-05-07 00:52 | -27.64767 | 163.29615 | 33066 ft | 573 kts | 50° |
| 2026-05-07 00:52 | -27.60266 | 163.36977 | 33072 ft | 572 kts | 50° |
| 2026-05-07 00:53 | -27.55741 | 163.44365 | 33068 ft | 572 kts | 50° |
| 2026-05-07 00:53 | -27.51214 | 163.51744 | 33070 ft | 572 kts | 50° |
| 2026-05-07 00:54 | -27.46714 | 163.59068 | 33066 ft | 571 kts | 50° |
| 2026-05-07 00:54 | -27.42188 | 163.66420 | 33056 ft | 571 kts | 51° |
| 2026-05-07 00:55 | -27.37667 | 163.73751 | 33057 ft | 569 kts | 51° |
| 2026-05-07 00:55 | -27.33878 | 163.79886 | 33057 ft | 569 kts | 51° |
| 2026-05-07 00:56 | -27.29358 | 163.87195 | 33056 ft | 569 kts | 50° |
| 2026-05-07 00:56 | -27.24863 | 163.94450 | 33053 ft | 569 kts | 50° |
| 2026-05-07 00:57 | -27.20332 | 164.01751 | 33057 ft | 569 kts | 51° |
| 2026-05-07 00:57 | -27.15795 | 164.09051 | 33061 ft | 569 kts | 51° |
| 2026-05-07 00:58 | -27.11257 | 164.16342 | 33050 ft | 570 kts | 50° |
| 2026-05-07 00:58 | -27.06709 | 164.23634 | 33053 ft | 571 kts | 50° |
| 2026-05-07 00:59 | -26.99866 | 164.34585 | 33065 ft | 572 kts | 50° |
| 2026-05-07 01:00 | -26.95287 | 164.41897 | 33066 ft | 573 kts | 51° |
| 2026-05-07 01:00 | -26.90737 | 164.49152 | 33067 ft | 573 kts | 51° |
| 2026-05-07 01:01 | -26.86152 | 164.56452 | 33076 ft | 573 kts | 50° |
| 2026-05-07 01:01 | -26.81556 | 164.63755 | 33076 ft | 573 kts | 50° |
| 2026-05-07 01:02 | -26.76956 | 164.71054 | 33080 ft | 573 kts | 50° |
| 2026-05-07 01:02 | -26.72361 | 164.78333 | 33068 ft | 573 kts | 51° |
| 2026-05-07 01:03 | -26.67755 | 164.85618 | 33073 ft | 573 kts | 51° |
| 2026-05-07 01:03 | -26.63152 | 164.92886 | 33063 ft | 573 kts | 50° |
| 2026-05-07 01:04 | -26.58542 | 165.00154 | 33059 ft | 573 kts | 50° |
| 2026-05-07 01:04 | -26.53917 | 165.07433 | 33076 ft | 574 kts | 50° |
| 2026-05-07 01:05 | -26.49322 | 165.14654 | 33076 ft | 574 kts | 51° |
| 2026-05-07 01:05 | -26.44693 | 165.21915 | 33079 ft | 574 kts | 51° |
| 2026-05-07 01:06 | -26.40056 | 165.29179 | 33052 ft | 574 kts | 51° |
| 2026-05-07 01:06 | -26.35421 | 165.36429 | 33066 ft | 574 kts | 51° |
| 2026-05-07 01:07 | -26.30780 | 165.43674 | 33071 ft | 574 kts | 50° |
| 2026-05-07 01:07 | -26.26131 | 165.50922 | 33082 ft | 575 kts | 50° |
| 2026-05-07 01:08 | -26.21477 | 165.58166 | 33091 ft | 575 kts | 50° |
| 2026-05-07 01:08 | -26.16822 | 165.65400 | 33094 ft | 575 kts | 50° |
| 2026-05-07 01:09 | -26.12152 | 165.72646 | 33067 ft | 575 kts | 50° |
| 2026-05-07 01:09 | -26.07481 | 165.79881 | 33079 ft | 575 kts | 51° |
| 2026-05-07 01:10 | -26.02811 | 165.87104 | 33074 ft | 575 kts | 51° |
| 2026-05-07 01:10 | -25.98135 | 165.94326 | 33077 ft | 576 kts | 51° |
| 2026-05-07 01:11 | -25.93451 | 166.01548 | 33076 ft | 576 kts | 50° |
| 2026-05-07 01:11 | -25.88796 | 166.08715 | 33051 ft | 576 kts | 50° |
| 2026-05-07 01:12 | -25.84104 | 166.15927 | 33070 ft | 575 kts | 51° |
| 2026-05-07 01:12 | -25.79411 | 166.23129 | 33070 ft | 576 kts | 51° |
| 2026-05-07 01:13 | -25.74716 | 166.30325 | 33069 ft | 576 kts | 51° |
| 2026-05-07 01:13 | -25.70016 | 166.37516 | 33070 ft | 576 kts | 51° |
| 2026-05-07 01:14 | -25.65303 | 166.44715 | 33067 ft | 576 kts | 51° |
| 2026-05-07 01:14 | -25.60594 | 166.51898 | 33061 ft | 576 kts | 51° |
| 2026-05-07 01:15 | -25.55880 | 166.59075 | 33067 ft | 576 kts | 51° |
| 2026-05-07 01:15 | -25.51190 | 166.66208 | 33067 ft | 576 kts | 51° |
| 2026-05-07 01:16 | -25.46467 | 166.73379 | 33066 ft | 577 kts | 51° |
| 2026-05-07 01:16 | -25.41734 | 166.80555 | 33069 ft | 577 kts | 51° |
| 2026-05-07 01:17 | -25.36999 | 166.87722 | 33079 ft | 577 kts | 51° |
| 2026-05-07 01:17 | -25.32259 | 166.94887 | 33067 ft | 577 kts | 51° |
| 2026-05-07 01:18 | -25.27517 | 167.02043 | 33063 ft | 577 kts | 51° |
| 2026-05-07 01:18 | -25.22772 | 167.09193 | 33068 ft | 577 kts | 51° |
| 2026-05-07 01:19 | -25.18016 | 167.16349 | 33062 ft | 577 kts | 51° |
| 2026-05-07 01:19 | -25.13298 | 167.23437 | 33067 ft | 577 kts | 51° |
| 2026-05-07 01:20 | -25.08540 | 167.30575 | 33042 ft | 577 kts | 51° |
| 2026-05-07 01:20 | -25.03783 | 167.37700 | 33059 ft | 577 kts | 51° |
| 2026-05-07 01:21 | -24.99018 | 167.44827 | 33060 ft | 578 kts | 51° |
| 2026-05-07 01:21 | -24.94244 | 167.51956 | 33060 ft | 578 kts | 51° |
| 2026-05-07 01:22 | -24.89463 | 167.59089 | 33065 ft | 578 kts | 51° |
| 2026-05-07 01:22 | -24.84679 | 167.66218 | 33063 ft | 579 kts | 51° |
| 2026-05-07 01:23 | -24.79887 | 167.73350 | 33054 ft | 579 kts | 51° |
| 2026-05-07 01:23 | -24.75087 | 167.80460 | 33055 ft | 579 kts | 51° |
| 2026-05-07 01:24 | -24.70279 | 167.87570 | 33052 ft | 579 kts | 51° |
| 2026-05-07 01:24 | -24.65475 | 167.94681 | 33054 ft | 579 kts | 51° |
| 2026-05-07 01:25 | -24.60659 | 168.01802 | 33062 ft | 580 kts | 51° |
| 2026-05-07 01:25 | -24.55868 | 168.08872 | 33058 ft | 580 kts | 51° |
| 2026-05-07 01:26 | -24.51041 | 168.15982 | 33054 ft | 579 kts | 51° |
| 2026-05-07 01:26 | -24.46216 | 168.23079 | 33053 ft | 580 kts | 51° |
| 2026-05-07 01:27 | -24.41394 | 168.30163 | 33051 ft | 580 kts | 51° |
| 2026-05-07 01:27 | -24.36563 | 168.37248 | 33056 ft | 580 kts | 51° |
| 2026-05-07 01:28 | -24.31719 | 168.44341 | 33056 ft | 580 kts | 51° |
| 2026-05-07 01:28 | -24.26913 | 168.51371 | 33054 ft | 580 kts | 51° |
| 2026-05-07 01:29 | -24.22066 | 168.58449 | 33058 ft | 581 kts | 51° |
| 2026-05-07 01:29 | -24.17210 | 168.65530 | 33051 ft | 581 kts | 51° |
| 2026-05-07 01:30 | -24.12352 | 168.72603 | 33047 ft | 581 kts | 51° |
| 2026-05-07 01:30 | -24.07489 | 168.79676 | 33057 ft | 581 kts | 51° |
| 2026-05-07 01:31 | -24.02627 | 168.86736 | 33057 ft | 581 kts | 51° |
| 2026-05-07 01:31 | -23.97762 | 168.93789 | 33033 ft | 581 kts | 51° |
| 2026-05-07 01:32 | -23.92892 | 169.00840 | 33040 ft | 581 kts | 51° |
| 2026-05-07 01:32 | -23.88043 | 169.07851 | 33044 ft | 581 kts | 51° |
| 2026-05-07 01:33 | -23.83157 | 169.14905 | 33046 ft | 581 kts | 51° |
| 2026-05-07 01:33 | -23.78266 | 169.21958 | 33046 ft | 581 kts | 51° |
| 2026-05-07 01:34 | -23.73412 | 169.28946 | 33046 ft | 581 kts | 51° |
| 2026-05-07 01:34 | -23.68527 | 169.35968 | 33048 ft | 581 kts | 51° |
| 2026-05-07 01:35 | -23.63639 | 169.42987 | 33052 ft | 581 kts | 51° |
| 2026-05-07 01:35 | -23.58737 | 169.50015 | 33048 ft | 581 kts | 51° |
| 2026-05-07 01:36 | -23.53836 | 169.57032 | 33048 ft | 582 kts | 51° |
| 2026-05-07 01:36 | -23.48917 | 169.64065 | 33049 ft | 582 kts | 51° |
| 2026-05-07 01:37 | -23.44038 | 169.71031 | 33044 ft | 582 kts | 51° |
| 2026-05-07 01:37 | -23.39122 | 169.78041 | 33041 ft | 582 kts | 51° |
| 2026-05-07 01:38 | -23.34202 | 169.85045 | 33036 ft | 582 kts | 51° |
| 2026-05-07 01:38 | -23.29277 | 169.92050 | 33040 ft | 582 kts | 51° |
| 2026-05-07 01:39 | -23.24344 | 169.99055 | 33037 ft | 582 kts | 51° |
| 2026-05-07 01:39 | -23.19415 | 170.06044 | 33038 ft | 583 kts | 51° |
| 2026-05-07 01:40 | -23.14480 | 170.13033 | 33039 ft | 583 kts | 51° |
| 2026-05-07 01:40 | -23.09566 | 170.19981 | 33035 ft | 582 kts | 51° |
| 2026-05-07 01:41 | -23.04629 | 170.26954 | 33034 ft | 582 kts | 51° |
| 2026-05-07 01:41 | -22.99685 | 170.33926 | 33036 ft | 583 kts | 51° |
| 2026-05-07 01:42 | -22.95536 | 170.39771 | 33038 ft | 583 kts | 51° |
| 2026-05-07 01:42 | -22.90618 | 170.46690 | 33032 ft | 583 kts | 51° |
| 2026-05-07 01:43 | -22.85663 | 170.53652 | 33032 ft | 583 kts | 51° |
| 2026-05-07 01:43 | -22.80674 | 170.60652 | 33029 ft | 583 kts | 51° |
| 2026-05-07 01:44 | -22.75744 | 170.67560 | 33032 ft | 583 kts | 51° |
| 2026-05-07 01:44 | -22.70774 | 170.74515 | 33024 ft | 583 kts | 51° |
| 2026-05-07 01:45 | -22.65810 | 170.81451 | 33022 ft | 583 kts | 51° |
| 2026-05-07 01:45 | -22.60836 | 170.88394 | 33023 ft | 583 kts | 51° |
| 2026-05-07 01:46 | -22.55858 | 170.95332 | 33023 ft | 583 kts | 51° |
| 2026-05-07 01:46 | -22.50911 | 171.02218 | 33022 ft | 583 kts | 51° |
| 2026-05-07 01:47 | -22.45931 | 171.09141 | 33023 ft | 583 kts | 51° |
| 2026-05-07 01:47 | -22.40951 | 171.16056 | 33022 ft | 583 kts | 51° |
| 2026-05-07 01:48 | -22.35969 | 171.22962 | 33022 ft | 583 kts | 51° |
| 2026-05-07 01:48 | -22.30975 | 171.29877 | 33028 ft | 583 kts | 51° |
| 2026-05-07 01:49 | -22.25973 | 171.36794 | 33016 ft | 584 kts | 51° |
| 2026-05-07 01:49 | -22.20975 | 171.43698 | 33017 ft | 583 kts | 51° |
| 2026-05-07 01:50 | -22.16003 | 171.50559 | 33011 ft | 583 kts | 51° |
| 2026-05-07 01:50 | -22.11008 | 171.57447 | 33012 ft | 583 kts | 51° |
| 2026-05-07 01:51 | -22.05999 | 171.64329 | 33009 ft | 583 kts | 51° |
| 2026-05-07 01:51 | -22.00982 | 171.71206 | 33009 ft | 583 kts | 51° |
| 2026-05-07 01:52 | -21.95966 | 171.78088 | 33006 ft | 583 kts | 51° |
| 2026-05-07 01:52 | -21.90954 | 171.84960 | 33019 ft | 583 kts | 51° |
| 2026-05-07 01:53 | -21.85969 | 171.91781 | 33009 ft | 582 kts | 51° |
| 2026-05-07 01:53 | -21.80957 | 171.98629 | 33008 ft | 582 kts | 51° |
| 2026-05-07 01:54 | -21.75949 | 172.05464 | 33001 ft | 582 kts | 51° |
| 2026-05-07 01:54 | -21.70926 | 172.12308 | 32996 ft | 582 kts | 51° |
| 2026-05-07 01:55 | -21.65909 | 172.19137 | 32995 ft | 583 kts | 51° |
| 2026-05-07 01:55 | -21.60877 | 172.25979 | 32982 ft | 583 kts | 51° |
| 2026-05-07 01:56 | -21.55874 | 172.32771 | 33007 ft | 582 kts | 51° |
| 2026-05-07 01:56 | -21.50852 | 172.39582 | 33005 ft | 582 kts | 51° |
| 2026-05-07 01:57 | -21.45819 | 172.46400 | 32993 ft | 582 kts | 51° |
| 2026-05-07 01:57 | -21.40787 | 172.53207 | 32997 ft | 582 kts | 51° |
| 2026-05-07 01:58 | -21.35747 | 172.60017 | 32996 ft | 582 kts | 51° |
| 2026-05-07 01:58 | -21.30737 | 172.66776 | 32996 ft | 582 kts | 51° |
| 2026-05-07 01:59 | -21.25696 | 172.73571 | 33003 ft | 582 kts | 51° |
| 2026-05-07 01:59 | -21.20643 | 172.80373 | 33001 ft | 582 kts | 51° |
| 2026-05-07 02:00 | -21.15593 | 172.87163 | 33001 ft | 582 kts | 51° |
| 2026-05-07 02:00 | -21.10542 | 172.93945 | 32994 ft | 582 kts | 51° |
| 2026-05-07 02:01 | -21.05485 | 173.00728 | 33000 ft | 582 kts | 51° |
| 2026-05-07 02:01 | -21.00422 | 173.07511 | 32995 ft | 582 kts | 51° |
| 2026-05-07 02:02 | -20.95393 | 173.14239 | 32993 ft | 582 kts | 51° |
| 2026-05-07 02:02 | -20.90325 | 173.21012 | 32983 ft | 582 kts | 51° |
| 2026-05-07 02:03 | -20.85261 | 173.27772 | 32988 ft | 582 kts | 51° |
| 2026-05-07 02:03 | -20.80188 | 173.34535 | 32983 ft | 583 kts | 51° |
| 2026-05-07 02:04 | -20.75115 | 173.41290 | 32992 ft | 583 kts | 51° |
| 2026-05-07 02:04 | -20.70039 | 173.48041 | 32979 ft | 583 kts | 51° |
| 2026-05-07 02:05 | -20.64959 | 173.54789 | 32994 ft | 583 kts | 51° |
| 2026-05-07 02:05 | -20.59872 | 173.61539 | 32980 ft | 583 kts | 51° |
| 2026-05-07 02:06 | -20.54816 | 173.68240 | 32981 ft | 583 kts | 51° |
| 2026-05-07 02:06 | -20.49725 | 173.74979 | 32981 ft | 583 kts | 51° |
| 2026-05-07 02:07 | -20.44637 | 173.81706 | 32978 ft | 583 kts | 51° |
| 2026-05-07 02:07 | -20.36987 | 173.91806 | 32984 ft | 583 kts | 51° |
| 2026-05-07 02:08 | -20.31889 | 173.98527 | 32972 ft | 582 kts | 51° |
| 2026-05-07 02:08 | -20.26801 | 174.05226 | 32971 ft | 582 kts | 51° |
| 2026-05-07 02:09 | -20.21706 | 174.11928 | 32962 ft | 582 kts | 51° |
| 2026-05-07 02:09 | -20.16644 | 174.18578 | 32967 ft | 582 kts | 51° |
| 2026-05-07 02:10 | -20.11548 | 174.25266 | 32962 ft | 582 kts | 51° |
| 2026-05-07 02:10 | -20.06439 | 174.31961 | 32958 ft | 582 kts | 51° |
| 2026-05-07 02:11 | -20.01334 | 174.38646 | 32969 ft | 582 kts | 51° |
| 2026-05-07 02:11 | -19.96230 | 174.45321 | 32967 ft | 582 kts | 51° |
| 2026-05-07 02:12 | -19.91125 | 174.51989 | 32962 ft | 581 kts | 51° |
| 2026-05-07 02:12 | -19.86015 | 174.58656 | 32960 ft | 581 kts | 51° |
| 2026-05-07 02:13 | -19.80937 | 174.65274 | 32958 ft | 581 kts | 51° |
| 2026-05-07 02:13 | -19.75826 | 174.71928 | 32959 ft | 581 kts | 51° |
| 2026-05-07 02:14 | -19.70712 | 174.78579 | 32960 ft | 580 kts | 51° |
| 2026-05-07 02:14 | -19.65602 | 174.85216 | 32959 ft | 580 kts | 51° |
| 2026-05-07 02:15 | -19.60492 | 174.91846 | 32958 ft | 580 kts | 51° |
| 2026-05-07 02:15 | -19.55382 | 174.98470 | 32949 ft | 580 kts | 51° |
| 2026-05-07 02:16 | -19.50274 | 175.05083 | 32960 ft | 580 kts | 51° |
| 2026-05-07 02:16 | -19.45165 | 175.11690 | 32947 ft | 580 kts | 51° |
| 2026-05-07 02:17 | -19.40049 | 175.18299 | 32948 ft | 580 kts | 51° |
| 2026-05-07 02:17 | -19.34976 | 175.24847 | 32949 ft | 579 kts | 51° |
| 2026-05-07 02:18 | -19.29865 | 175.31440 | 32943 ft | 578 kts | 51° |
| 2026-05-07 02:18 | -19.24753 | 175.38022 | 32941 ft | 578 kts | 51° |
| 2026-05-07 02:19 | -19.19635 | 175.44592 | 32953 ft | 578 kts | 51° |
| 2026-05-07 02:19 | -19.14519 | 175.51160 | 32946 ft | 578 kts | 51° |
| 2026-05-07 02:20 | -19.09401 | 175.57725 | 32944 ft | 577 kts | 51° |
| 2026-05-07 02:20 | -19.04291 | 175.64273 | 32945 ft | 576 kts | 51° |
| 2026-05-07 02:21 | -18.99216 | 175.70769 | 32939 ft | 576 kts | 51° |
| 2026-05-07 02:21 | -18.94115 | 175.77291 | 32936 ft | 576 kts | 51° |
| 2026-05-07 02:22 | -18.89011 | 175.83811 | 32947 ft | 575 kts | 51° |
| 2026-05-07 02:22 | -18.83906 | 175.90323 | 32941 ft | 575 kts | 50° |
| 2026-05-07 02:23 | -18.78808 | 175.96821 | 32937 ft | 574 kts | 50° |
| 2026-05-07 02:23 | -18.73711 | 176.03310 | 32935 ft | 574 kts | 50° |
| 2026-05-07 02:24 | -18.68621 | 176.09785 | 32936 ft | 573 kts | 51° |
| 2026-05-07 02:24 | -18.63556 | 176.16219 | 32929 ft | 573 kts | 50° |
| 2026-05-07 02:25 | -18.58454 | 176.22696 | 32938 ft | 573 kts | 50° |
| 2026-05-07 02:25 | -18.53360 | 176.29155 | 32931 ft | 573 kts | 50° |
| 2026-05-07 02:26 | -18.48265 | 176.35608 | 32932 ft | 572 kts | 50° |
| 2026-05-07 02:26 | -18.43196 | 176.42022 | 32933 ft | 572 kts | 50° |
| 2026-05-07 02:27 | -18.38098 | 176.48467 | 32926 ft | 572 kts | 50° |
| 2026-05-07 02:27 | -18.33012 | 176.54889 | 32934 ft | 571 kts | 50° |
| 2026-05-07 02:28 | -18.27919 | 176.61314 | 32928 ft | 571 kts | 50° |
| 2026-05-07 02:28 | -18.23687 | 176.66647 | 32924 ft | 571 kts | 50° |
| 2026-05-07 02:29 | -18.18599 | 176.73054 | 32920 ft | 570 kts | 50° |
| 2026-05-07 02:29 | -18.13508 | 176.79459 | 32920 ft | 570 kts | 50° |
| 2026-05-07 02:30 | -18.08412 | 176.85863 | 32915 ft | 571 kts | 50° |
| 2026-05-07 02:30 | -18.03314 | 176.92262 | 32918 ft | 571 kts | 50° |
| 2026-05-07 02:31 | -17.98212 | 176.98662 | 32919 ft | 571 kts | 50° |
| 2026-05-07 02:31 | -17.93139 | 177.05018 | 32918 ft | 570 kts | 50° |
| 2026-05-07 02:32 | -17.88045 | 177.11394 | 32916 ft | 570 kts | 50° |
| 2026-05-07 02:32 | -17.82938 | 177.17780 | 32908 ft | 570 kts | 50° |
| 2026-05-07 02:33 | -17.77834 | 177.24156 | 32908 ft | 570 kts | 50° |
| 2026-05-07 02:33 | -17.72736 | 177.30518 | 32908 ft | 570 kts | 50° |
| 2026-05-07 02:34 | -17.67643 | 177.36870 | 32915 ft | 569 kts | 50° |
| 2026-05-07 02:34 | -17.62598 | 177.43180 | 32910 ft | 568 kts | 50° |
| 2026-05-07 02:35 | -17.57553 | 177.49569 | 32905 ft | 568 kts | 50° |
| 2026-05-07 02:35 | -17.52514 | 177.55940 | 32900 ft | 567 kts | 50° |
| 2026-05-07 02:36 | -17.47471 | 177.62301 | 32899 ft | 567 kts | 50° |
| 2026-05-07 02:36 | -17.42424 | 177.68659 | 32892 ft | 567 kts | 50° |
| 2026-05-07 02:37 | -17.37377 | 177.75012 | 32892 ft | 567 kts | 50° |
| 2026-05-07 02:37 | -17.32360 | 177.81319 | 32906 ft | 567 kts | 50° |
| 2026-05-07 02:38 | -17.27311 | 177.87661 | 32897 ft | 567 kts | 50° |
| 2026-05-07 02:38 | -17.22262 | 177.93998 | 32901 ft | 567 kts | 50° |
| 2026-05-07 02:39 | -17.17203 | 178.00343 | 32896 ft | 567 kts | 50° |
| 2026-05-07 02:39 | -17.12146 | 178.06679 | 32896 ft | 567 kts | 50° |
| 2026-05-07 02:40 | -17.07118 | 178.12973 | 32896 ft | 567 kts | 50° |
| 2026-05-07 02:40 | -17.02054 | 178.19305 | 32915 ft | 566 kts | 50° |
| 2026-05-07 02:41 | -16.96999 | 178.25621 | 32905 ft | 566 kts | 50° |
| 2026-05-07 02:41 | -16.91947 | 178.31926 | 32901 ft | 565 kts | 50° |
| 2026-05-07 02:42 | -16.86898 | 178.38223 | 32896 ft | 565 kts | 50° |
| 2026-05-07 02:42 | -16.81853 | 178.44509 | 32894 ft | 565 kts | 50° |
| 2026-05-07 02:43 | -16.76803 | 178.50795 | 32895 ft | 565 kts | 50° |
| 2026-05-07 02:43 | -16.71746 | 178.57085 | 32890 ft | 565 kts | 50° |
| 2026-05-07 02:44 | -16.66692 | 178.63364 | 32907 ft | 565 kts | 50° |
| 2026-05-07 02:44 | -16.61641 | 178.69635 | 32898 ft | 564 kts | 50° |
| 2026-05-07 02:45 | -16.56588 | 178.75895 | 32895 ft | 564 kts | 50° |
| 2026-05-07 02:45 | -16.51511 | 178.82122 | 32893 ft | 563 kts | 50° |
| 2026-05-07 02:46 | -16.46459 | 178.88314 | 32884 ft | 564 kts | 50° |
| 2026-05-07 02:46 | -16.41383 | 178.94536 | 32886 ft | 563 kts | 50° |
| 2026-05-07 02:47 | -16.36305 | 179.00756 | 32881 ft | 564 kts | 50° |
| 2026-05-07 02:47 | -16.31222 | 179.06977 | 32892 ft | 563 kts | 50° |
| 2026-05-07 02:48 | -16.26144 | 179.13186 | 32886 ft | 562 kts | 50° |
| 2026-05-07 02:48 | -16.21077 | 179.19376 | 32883 ft | 562 kts | 50° |
| 2026-05-07 02:49 | -16.16030 | 179.25537 | 32887 ft | 561 kts | 50° |
| 2026-05-07 02:49 | -16.10957 | 179.31724 | 32882 ft | 561 kts | 50° |
| 2026-05-07 02:50 | -16.05879 | 179.37911 | 32881 ft | 561 kts | 50° |
| 2026-05-07 02:50 | -16.00840 | 179.44045 | 32881 ft | 561 kts | 50° |
| 2026-05-07 02:51 | -15.95777 | 179.50204 | 32887 ft | 560 kts | 50° |
| 2026-05-07 02:51 | -15.90714 | 179.56358 | 32888 ft | 559 kts | 50° |
| 2026-05-07 02:52 | -15.85657 | 179.62499 | 32889 ft | 558 kts | 50° |
| 2026-05-07 02:52 | -15.80604 | 179.68629 | 32879 ft | 558 kts | 49° |
| 2026-05-07 02:53 | -15.75585 | 179.74714 | 32877 ft | 557 kts | 49° |
| 2026-05-07 02:53 | -15.70535 | 179.80830 | 32875 ft | 558 kts | 49° |
| 2026-05-07 02:54 | -15.65490 | 179.86936 | 32875 ft | 558 kts | 49° |
| 2026-05-07 02:54 | -15.60428 | 179.93058 | 32879 ft | 557 kts | 50° |
| 2026-05-07 02:55 | -15.55385 | 179.99151 | 32885 ft | 557 kts | 50° |
| 2026-05-07 02:55 | -15.50333 | -179.94748 | 32890 ft | 556 kts | 49° |
| 2026-05-07 02:56 | -15.45289 | -179.88664 | 32883 ft | 556 kts | 49° |
| 2026-05-07 02:56 | -15.40253 | -179.82594 | 32880 ft | 555 kts | 49° |
| 2026-05-07 02:57 | -15.35212 | -179.76523 | 32874 ft | 555 kts | 49° |
| 2026-05-07 02:57 | -15.30204 | -179.70496 | 32872 ft | 555 kts | 49° |
| 2026-05-07 02:58 | -15.25171 | -179.64436 | 32872 ft | 555 kts | 49° |
| 2026-05-07 02:58 | -15.20141 | -179.58369 | 32866 ft | 554 kts | 49° |
| 2026-05-07 02:59 | -15.15119 | -179.52314 | 32866 ft | 554 kts | 49° |
| 2026-05-07 02:59 | -15.10085 | -179.46251 | 32868 ft | 554 kts | 49° |
| 2026-05-07 03:00 | -15.05096 | -179.40250 | 32871 ft | 554 kts | 49° |
| 2026-05-07 03:00 | -15.00069 | -179.34207 | 32867 ft | 554 kts | 49° |
| 2026-05-07 03:01 | -14.95037 | -179.28164 | 32880 ft | 554 kts | 49° |
| 2026-05-07 03:01 | -14.90010 | -179.22130 | 32894 ft | 553 kts | 49° |
| 2026-05-07 03:02 | -14.84987 | -179.16108 | 32873 ft | 552 kts | 49° |
| 2026-05-07 03:02 | -14.79993 | -179.10123 | 32880 ft | 552 kts | 49° |
| 2026-05-07 03:03 | -14.74977 | -179.04117 | 32878 ft | 551 kts | 49° |
| 2026-05-07 03:03 | -14.69959 | -178.98114 | 32882 ft | 551 kts | 49° |
| 2026-05-07 03:04 | -14.64942 | -178.92116 | 32878 ft | 551 kts | 49° |
| 2026-05-07 03:04 | -14.59970 | -178.86177 | 32862 ft | 551 kts | 49° |
| 2026-05-07 03:05 | -14.54958 | -178.80193 | 32876 ft | 550 kts | 49° |
| 2026-05-07 03:05 | -14.49933 | -178.74201 | 32872 ft | 550 kts | 49° |
| 2026-05-07 03:06 | -14.44928 | -178.68235 | 32854 ft | 550 kts | 49° |
| 2026-05-07 03:06 | -14.39916 | -178.62267 | 32852 ft | 550 kts | 49° |
| 2026-05-07 03:07 | -14.34913 | -178.56312 | 32860 ft | 550 kts | 49° |
| 2026-05-07 03:07 | -14.29903 | -178.50355 | 32862 ft | 550 kts | 49° |
| 2026-05-07 03:08 | -14.24923 | -178.44435 | 32862 ft | 550 kts | 48° |
| 2026-05-07 03:08 | -14.19913 | -178.38488 | 32871 ft | 549 kts | 48° |
| 2026-05-07 03:09 | -14.14902 | -178.32542 | 32875 ft | 548 kts | 48° |
| 2026-05-07 03:09 | -14.09896 | -178.26605 | 32859 ft | 548 kts | 48° |
| 2026-05-07 03:10 | -14.04931 | -178.20723 | 32871 ft | 547 kts | 48° |
| 2026-05-07 03:10 | -13.99933 | -178.14806 | 32848 ft | 547 kts | 48° |
| 2026-05-07 03:11 | -13.94929 | -178.08886 | 32847 ft | 547 kts | 48° |
| 2026-05-07 03:11 | -13.89932 | -178.02978 | 32872 ft | 547 kts | 48° |
| 2026-05-07 03:12 | -13.84939 | -177.97079 | 32871 ft | 546 kts | 48° |
| 2026-05-07 03:12 | -13.79953 | -177.91192 | 32867 ft | 545 kts | 48° |
| 2026-05-07 03:13 | -13.74973 | -177.85317 | 32864 ft | 544 kts | 48° |
| 2026-05-07 03:13 | -13.70019 | -177.79477 | 32861 ft | 544 kts | 48° |
| 2026-05-07 03:14 | -13.65039 | -177.73610 | 32860 ft | 544 kts | 48° |
| 2026-05-07 03:15 | -13.57582 | -177.64832 | 32870 ft | 543 kts | 47° |
| 2026-05-07 03:15 | -13.52617 | -177.58993 | 32864 ft | 542 kts | 47° |
| 2026-05-07 03:16 | -13.47657 | -177.53163 | 32844 ft | 541 kts | 47° |
| 2026-05-07 03:16 | -13.42736 | -177.47384 | 32858 ft | 540 kts | 47° |
| 2026-05-07 03:17 | -13.37785 | -177.41573 | 32852 ft | 540 kts | 47° |
| 2026-05-07 03:17 | -13.33638 | -177.36709 | 32847 ft | 540 kts | 47° |
| 2026-05-07 03:18 | -13.28716 | -177.30938 | 32864 ft | 539 kts | 47° |
| 2026-05-07 03:18 | -13.23780 | -177.25157 | 32856 ft | 538 kts | 47° |
| 2026-05-07 03:19 | -13.18841 | -177.19375 | 32857 ft | 538 kts | 47° |
| 2026-05-07 03:19 | -13.13904 | -177.13600 | 32854 ft | 538 kts | 47° |
| 2026-05-07 03:20 | -13.08966 | -177.07827 | 32851 ft | 537 kts | 47° |
| 2026-05-07 03:20 | -13.04067 | -177.02102 | 32850 ft | 537 kts | 47° |
| 2026-05-07 03:21 | -12.99139 | -176.96352 | 32854 ft | 537 kts | 47° |
| 2026-05-07 03:21 | -12.94197 | -176.90602 | 32868 ft | 536 kts | 47° |
| 2026-05-07 03:22 | -12.89262 | -176.84858 | 32859 ft | 536 kts | 47° |
| 2026-05-07 03:22 | -12.84338 | -176.79127 | 32856 ft | 535 kts | 47° |
| 2026-05-07 03:23 | -12.79443 | -176.73433 | 32854 ft | 535 kts | 47° |
| 2026-05-07 03:23 | -12.74517 | -176.67708 | 32840 ft | 535 kts | 47° |
| 2026-05-07 03:24 | -12.69596 | -176.61993 | 32851 ft | 535 kts | 47° |
| 2026-05-07 03:24 | -12.64670 | -176.56277 | 32853 ft | 535 kts | 46° |
| 2026-05-07 03:25 | -12.59749 | -176.50570 | 32863 ft | 534 kts | 46° |
| 2026-05-07 03:25 | -12.54858 | -176.44901 | 32857 ft | 534 kts | 46° |
| 2026-05-07 03:26 | -12.49945 | -176.39210 | 32853 ft | 533 kts | 46° |
| 2026-05-07 03:26 | -12.45029 | -176.33520 | 32853 ft | 533 kts | 46° |
| 2026-05-07 03:27 | -12.40108 | -176.27826 | 32851 ft | 533 kts | 46° |
| 2026-05-07 03:27 | -12.35195 | -176.22146 | 32850 ft | 533 kts | 46° |
| 2026-05-07 03:28 | -12.30313 | -176.16506 | 32854 ft | 532 kts | 46° |
| 2026-05-07 03:28 | -12.25398 | -176.10829 | 32857 ft | 532 kts | 46° |
| 2026-05-07 03:29 | -12.20498 | -176.05175 | 32854 ft | 531 kts | 46° |
| 2026-05-07 03:29 | -12.15591 | -175.99516 | 32850 ft | 531 kts | 46° |
| 2026-05-07 03:30 | -12.10704 | -175.93883 | 32848 ft | 531 kts | 46° |
| 2026-05-07 03:30 | -12.05799 | -175.88232 | 32849 ft | 531 kts | 46° |
| 2026-05-07 03:31 | -12.00892 | -175.82584 | 32843 ft | 531 kts | 46° |
| 2026-05-07 03:31 | -11.95994 | -175.76947 | 32846 ft | 531 kts | 46° |
| 2026-05-07 03:32 | -11.91090 | -175.71309 | 32865 ft | 530 kts | 46° |
| 2026-05-07 03:32 | -11.86191 | -175.65679 | 32864 ft | 530 kts | 46° |
| 2026-05-07 03:33 | -11.81327 | -175.60092 | 32862 ft | 530 kts | 46° |
| 2026-05-07 03:33 | -11.76427 | -175.54468 | 32862 ft | 530 kts | 46° |
| 2026-05-07 03:34 | -11.71524 | -175.48843 | 32861 ft | 530 kts | 46° |
| 2026-05-07 03:34 | -11.66623 | -175.43224 | 32841 ft | 530 kts | 46° |
| 2026-05-07 03:35 | -11.61719 | -175.37603 | 32859 ft | 529 kts | 46° |
| 2026-05-07 03:35 | -11.56826 | -175.32000 | 32857 ft | 529 kts | 46° |
| 2026-05-07 03:36 | -11.51957 | -175.26426 | 32856 ft | 528 kts | 46° |
| 2026-05-07 03:36 | -11.47063 | -175.20827 | 32851 ft | 528 kts | 46° |
| 2026-05-07 03:37 | -11.42174 | -175.15238 | 32830 ft | 528 kts | 46° |
| 2026-05-07 03:37 | -11.37313 | -175.09684 | 32848 ft | 528 kts | 46° |
| 2026-05-07 03:38 | -11.32424 | -175.04100 | 32832 ft | 528 kts | 46° |
| 2026-05-07 03:38 | -11.27533 | -174.98517 | 32852 ft | 528 kts | 46° |
| 2026-05-07 03:39 | -11.22636 | -174.92932 | 32840 ft | 528 kts | 46° |
| 2026-05-07 03:39 | -11.17735 | -174.87343 | 32850 ft | 529 kts | 46° |
| 2026-05-07 03:40 | -11.12835 | -174.81760 | 32848 ft | 529 kts | 46° |
| 2026-05-07 03:40 | -11.07925 | -174.76168 | 32853 ft | 529 kts | 46° |
| 2026-05-07 03:41 | -11.03008 | -174.70571 | 32854 ft | 529 kts | 46° |
| 2026-05-07 03:41 | -10.98123 | -174.65014 | 32856 ft | 530 kts | 46° |
| 2026-05-07 03:42 | -10.93205 | -174.59422 | 32852 ft | 529 kts | 46° |
| 2026-05-07 03:42 | -10.88285 | -174.53831 | 32854 ft | 529 kts | 46° |
| 2026-05-07 03:43 | -10.83375 | -174.48253 | 32855 ft | 529 kts | 46° |
| 2026-05-07 03:43 | -10.78454 | -174.42668 | 32851 ft | 529 kts | 46° |
| 2026-05-07 03:44 | -10.73571 | -174.37127 | 32853 ft | 529 kts | 46° |
| 2026-05-07 03:44 | -10.68660 | -174.31558 | 32852 ft | 529 kts | 46° |
| 2026-05-07 03:45 | -10.63744 | -174.25986 | 32849 ft | 529 kts | 46° |
| 2026-05-07 03:45 | -10.58825 | -174.20413 | 32850 ft | 529 kts | 46° |
| 2026-05-07 03:46 | -10.53905 | -174.14843 | 32849 ft | 529 kts | 46° |
| 2026-05-07 03:46 | -10.48983 | -174.09273 | 32848 ft | 529 kts | 46° |
| 2026-05-07 03:47 | -10.44059 | -174.03703 | 32847 ft | 529 kts | 46° |
| 2026-05-07 03:47 | -10.39139 | -173.98142 | 32849 ft | 529 kts | 46° |
| 2026-05-07 03:48 | -10.34243 | -173.92610 | 32849 ft | 529 kts | 46° |
| 2026-05-07 03:48 | -10.29317 | -173.87046 | 32859 ft | 529 kts | 46° |
| 2026-05-07 03:49 | -10.24397 | -173.81493 | 32856 ft | 529 kts | 46° |
| 2026-05-07 03:49 | -10.19479 | -173.75944 | 32849 ft | 528 kts | 46° |
| 2026-05-07 03:50 | -10.14558 | -173.70395 | 32845 ft | 528 kts | 46° |
| 2026-05-07 03:50 | -10.09646 | -173.64859 | 32843 ft | 528 kts | 46° |
| 2026-05-07 03:51 | -10.04732 | -173.59324 | 32843 ft | 528 kts | 46° |
| 2026-05-07 03:51 | -9.99842 | -173.53818 | 32843 ft | 528 kts | 46° |
| 2026-05-07 03:52 | -9.94934 | -173.48294 | 32858 ft | 527 kts | 46° |
| 2026-05-07 03:52 | -9.90017 | -173.42763 | 32850 ft | 526 kts | 46° |
| 2026-05-07 03:53 | -9.85107 | -173.37243 | 32846 ft | 526 kts | 46° |
| 2026-05-07 03:53 | -9.80238 | -173.31771 | 32844 ft | 526 kts | 46° |
| 2026-05-07 03:54 | -9.75330 | -173.26258 | 32847 ft | 526 kts | 46° |
| 2026-05-07 03:54 | -9.70433 | -173.20760 | 32846 ft | 525 kts | 46° |
| 2026-05-07 03:55 | -9.65530 | -173.15257 | 32845 ft | 525 kts | 45° |
| 2026-05-07 03:55 | -9.60627 | -173.09757 | 32844 ft | 525 kts | 45° |
| 2026-05-07 03:56 | -9.55733 | -173.04270 | 32846 ft | 525 kts | 45° |
| 2026-05-07 03:56 | -9.50836 | -172.98780 | 32851 ft | 525 kts | 45° |
| 2026-05-07 03:57 | -9.45942 | -172.93296 | 32842 ft | 525 kts | 45° |
| 2026-05-07 03:57 | -9.41043 | -172.87813 | 32845 ft | 525 kts | 45° |
| 2026-05-07 03:58 | -9.36143 | -172.82326 | 32848 ft | 525 kts | 45° |
| 2026-05-07 03:58 | -9.31275 | -172.76873 | 32851 ft | 524 kts | 45° |
| 2026-05-07 03:59 | -9.26381 | -172.71393 | 32848 ft | 524 kts | 45° |
| 2026-05-07 03:59 | -9.21489 | -172.65919 | 32845 ft | 524 kts | 45° |
| 2026-05-07 04:00 | -9.16593 | -172.60443 | 32848 ft | 524 kts | 45° |
| 2026-05-07 04:00 | -9.11702 | -172.54976 | 32848 ft | 524 kts | 45° |
| 2026-05-07 04:01 | -9.06831 | -172.49534 | 32850 ft | 524 kts | 45° |
| 2026-05-07 04:01 | -9.01937 | -172.44069 | 32850 ft | 524 kts | 45° |
| 2026-05-07 04:02 | -8.97041 | -172.38602 | 32840 ft | 524 kts | 45° |
| 2026-05-07 04:02 | -8.92140 | -172.33134 | 32844 ft | 524 kts | 45° |
| 2026-05-07 04:03 | -8.87242 | -172.27671 | 32843 ft | 524 kts | 45° |
| 2026-05-07 04:03 | -8.82342 | -172.22208 | 32844 ft | 524 kts | 45° |
| 2026-05-07 04:04 | -8.77443 | -172.16748 | 32847 ft | 524 kts | 45° |
| 2026-05-07 04:04 | -8.72540 | -172.11287 | 32846 ft | 524 kts | 45° |
| 2026-05-07 04:05 | -8.67638 | -172.05828 | 32843 ft | 525 kts | 45° |
| 2026-05-07 04:05 | -8.62728 | -172.00364 | 32836 ft | 524 kts | 45° |
| 2026-05-07 04:06 | -8.57850 | -171.94937 | 32847 ft | 524 kts | 45° |
| 2026-05-07 04:06 | -8.52947 | -171.89485 | 32845 ft | 524 kts | 45° |
| 2026-05-07 04:07 | -8.48835 | -171.84913 | 32844 ft | 524 kts | 45° |
| 2026-05-07 04:07 | -8.43966 | -171.79502 | 32843 ft | 524 kts | 45° |
| 2026-05-07 04:08 | -8.39067 | -171.74061 | 32844 ft | 524 kts | 45° |
| 2026-05-07 04:08 | -8.34163 | -171.68616 | 32844 ft | 524 kts | 45° |
| 2026-05-07 04:09 | -8.29257 | -171.63170 | 32847 ft | 524 kts | 45° |
| 2026-05-07 04:09 | -8.24355 | -171.57732 | 32839 ft | 523 kts | 44° |
| 2026-05-07 04:10 | -8.19454 | -171.52297 | 32843 ft | 523 kts | 44° |
| 2026-05-07 04:10 | -8.14550 | -171.46861 | 32842 ft | 523 kts | 44° |
| 2026-05-07 04:11 | -8.09647 | -171.41428 | 32841 ft | 523 kts | 44° |
| 2026-05-07 04:11 | -8.04746 | -171.36000 | 32842 ft | 523 kts | 44° |
| 2026-05-07 04:12 | -7.99847 | -171.30575 | 32842 ft | 523 kts | 44° |
| 2026-05-07 04:12 | -7.94944 | -171.25148 | 32843 ft | 523 kts | 44° |
| 2026-05-07 04:13 | -7.90064 | -171.19748 | 32847 ft | 523 kts | 44° |
| 2026-05-07 04:13 | -7.85156 | -171.14321 | 32848 ft | 523 kts | 44° |
| 2026-05-07 04:14 | -7.80260 | -171.08908 | 32847 ft | 522 kts | 44° |
| 2026-05-07 04:14 | -7.75355 | -171.03486 | 32844 ft | 522 kts | 44° |
| 2026-05-07 04:15 | -7.70458 | -170.98076 | 32842 ft | 522 kts | 44° |
| 2026-05-07 04:15 | -7.65589 | -170.92700 | 32844 ft | 522 kts | 44° |
| 2026-05-07 04:16 | -7.60657 | -170.87255 | 32839 ft | 522 kts | 44° |
| 2026-05-07 04:16 | -7.55792 | -170.81885 | 32840 ft | 522 kts | 44° |
| 2026-05-07 04:17 | -7.50886 | -170.76474 | 32842 ft | 522 kts | 44° |
| 2026-05-07 04:17 | -7.45984 | -170.71068 | 32837 ft | 522 kts | 44° |
| 2026-05-07 04:18 | -7.41068 | -170.65650 | 32837 ft | 523 kts | 44° |
| 2026-05-07 04:18 | -7.36164 | -170.60246 | 32843 ft | 523 kts | 44° |
| 2026-05-07 04:19 | -7.31279 | -170.54865 | 32846 ft | 523 kts | 44° |
| 2026-05-07 04:19 | -7.26356 | -170.49443 | 32841 ft | 524 kts | 44° |
| 2026-05-07 04:20 | -7.21431 | -170.44021 | 32844 ft | 524 kts | 44° |
| 2026-05-07 04:20 | -7.16512 | -170.38608 | 32845 ft | 524 kts | 44° |
| 2026-05-07 04:21 | -7.09150 | -170.30511 | 32848 ft | 524 kts | 44° |
| 2026-05-07 04:21 | -7.04228 | -170.25099 | 32850 ft | 524 kts | 44° |
| 2026-05-07 04:22 | -6.99300 | -170.19683 | 32847 ft | 524 kts | 44° |
| 2026-05-07 04:22 | -6.94380 | -170.14278 | 32854 ft | 524 kts | 45° |
| 2026-05-07 04:23 | -6.89461 | -170.08874 | 32850 ft | 523 kts | 45° |
| 2026-05-07 04:23 | -6.84540 | -170.03471 | 32847 ft | 523 kts | 45° |
| 2026-05-07 04:24 | -6.79621 | -169.98072 | 32846 ft | 523 kts | 45° |
| 2026-05-07 04:24 | -6.74706 | -169.92679 | 32843 ft | 522 kts | 45° |
| 2026-05-07 04:25 | -6.69790 | -169.87287 | 32846 ft | 522 kts | 45° |
| 2026-05-07 04:25 | -6.64910 | -169.81935 | 32845 ft | 522 kts | 45° |
| 2026-05-07 04:26 | -6.59998 | -169.76550 | 32848 ft | 522 kts | 45° |
| 2026-05-07 04:26 | -6.55081 | -169.71161 | 32849 ft | 522 kts | 45° |
| 2026-05-07 04:27 | -6.50160 | -169.65771 | 32849 ft | 522 kts | 45° |
| 2026-05-07 04:27 | -6.45242 | -169.60385 | 32850 ft | 522 kts | 45° |
| 2026-05-07 04:28 | -6.40358 | -169.55038 | 32849 ft | 522 kts | 45° |
| 2026-05-07 04:28 | -6.35441 | -169.49656 | 32845 ft | 522 kts | 45° |
| 2026-05-07 04:29 | -6.30523 | -169.44275 | 32847 ft | 522 kts | 45° |
| 2026-05-07 04:29 | -6.25605 | -169.38895 | 32854 ft | 522 kts | 45° |
| 2026-05-07 04:30 | -6.20694 | -169.33524 | 32850 ft | 522 kts | 45° |
| 2026-05-07 04:30 | -6.15770 | -169.28142 | 32855 ft | 522 kts | 45° |
| 2026-05-07 04:31 | -6.10855 | -169.22770 | 32847 ft | 522 kts | 45° |
| 2026-05-07 04:31 | -6.05942 | -169.17401 | 32846 ft | 522 kts | 45° |
| 2026-05-07 04:32 | -6.01056 | -169.12065 | 32847 ft | 522 kts | 45° |
| 2026-05-07 04:32 | -5.96147 | -169.06706 | 32849 ft | 521 kts | 45° |
| 2026-05-07 04:33 | -5.91239 | -169.01348 | 32851 ft | 521 kts | 45° |
| 2026-05-07 04:33 | -5.86332 | -168.95992 | 32853 ft | 520 kts | 45° |
| 2026-05-07 04:34 | -5.81424 | -168.90637 | 32851 ft | 520 kts | 45° |
| 2026-05-07 04:34 | -5.76529 | -168.85298 | 32847 ft | 520 kts | 45° |
| 2026-05-07 04:35 | -5.71618 | -168.79944 | 32845 ft | 520 kts | 45° |
| 2026-05-07 04:35 | -5.66747 | -168.74633 | 32844 ft | 520 kts | 45° |
| 2026-05-07 04:36 | -5.61840 | -168.69286 | 32844 ft | 520 kts | 45° |
| 2026-05-07 04:36 | -5.56938 | -168.63945 | 32852 ft | 519 kts | 45° |
| 2026-05-07 04:37 | -5.52043 | -168.58613 | 32858 ft | 519 kts | 45° |
| 2026-05-07 04:37 | -5.47146 | -168.53280 | 32857 ft | 519 kts | 45° |
| 2026-05-07 04:38 | -5.42253 | -168.47954 | 32852 ft | 518 kts | 45° |
| 2026-05-07 04:38 | -5.37392 | -168.42663 | 32848 ft | 518 kts | 45° |
| 2026-05-07 04:39 | -5.32503 | -168.37343 | 32846 ft | 518 kts | 45° |
| 2026-05-07 04:39 | -5.27621 | -168.32033 | 32846 ft | 518 kts | 45° |
| 2026-05-07 04:40 | -5.22725 | -168.26708 | 32848 ft | 519 kts | 45° |
| 2026-05-07 04:40 | -5.17835 | -168.21391 | 32849 ft | 518 kts | 45° |
| 2026-05-07 04:41 | -5.12944 | -168.16073 | 32850 ft | 518 kts | 45° |
| 2026-05-07 04:41 | -5.08057 | -168.10761 | 32855 ft | 518 kts | 45° |
| 2026-05-07 04:42 | -5.03170 | -168.05449 | 32851 ft | 518 kts | 46° |
| 2026-05-07 04:42 | -4.98926 | -167.99649 | 32850 ft | 521 kts | 59° |
| 2026-05-07 04:43 | -4.95696 | -167.93140 | 32857 ft | 521 kts | 63° |
| 2026-05-07 04:43 | -4.92507 | -167.86600 | 32855 ft | 521 kts | 63° |
| 2026-05-07 04:44 | -4.89322 | -167.80069 | 32851 ft | 521 kts | 63° |
| 2026-05-07 04:44 | -4.86140 | -167.73532 | 32852 ft | 521 kts | 63° |
| 2026-05-07 04:45 | -4.82960 | -167.66999 | 32878 ft | 520 kts | 63° |
| 2026-05-07 04:45 | -4.79783 | -167.60473 | 32868 ft | 520 kts | 63° |
| 2026-05-07 04:46 | -4.76609 | -167.53956 | 32869 ft | 519 kts | 63° |
| 2026-05-07 04:46 | -4.73441 | -167.47453 | 32871 ft | 518 kts | 63° |
| 2026-05-07 04:47 | -4.70299 | -167.41005 | 32866 ft | 517 kts | 63° |
| 2026-05-07 04:47 | -4.67135 | -167.34515 | 32848 ft | 517 kts | 63° |
| 2026-05-07 04:48 | -4.63979 | -167.28042 | 32840 ft | 517 kts | 63° |
| 2026-05-07 04:48 | -4.60825 | -167.21577 | 32849 ft | 516 kts | 62° |
| 2026-05-07 04:49 | -4.57666 | -167.15103 | 32842 ft | 516 kts | 62° |
| 2026-05-07 04:49 | -4.54534 | -167.08687 | 32843 ft | 515 kts | 62° |
| 2026-05-07 04:50 | -4.51378 | -167.02224 | 32839 ft | 515 kts | 62° |
| 2026-05-07 04:50 | -4.48228 | -166.95774 | 32840 ft | 515 kts | 62° |
| 2026-05-07 04:51 | -4.45077 | -166.89323 | 32844 ft | 515 kts | 62° |
| 2026-05-07 04:51 | -4.41930 | -166.82882 | 32851 ft | 514 kts | 62° |
| 2026-05-07 04:52 | -4.38787 | -166.76453 | 32844 ft | 513 kts | 62° |
| 2026-05-07 04:52 | -4.35649 | -166.70034 | 32841 ft | 513 kts | 62° |
| 2026-05-07 04:53 | -4.32531 | -166.63658 | 32845 ft | 513 kts | 62° |
| 2026-05-07 04:53 | -4.29906 | -166.58291 | 32846 ft | 512 kts | 62° |
| 2026-05-07 04:54 | -4.26764 | -166.51867 | 32846 ft | 512 kts | 62° |
| 2026-05-07 04:54 | -4.23631 | -166.45465 | 32863 ft | 512 kts | 62° |
| 2026-05-07 04:55 | -4.20511 | -166.39091 | 32849 ft | 511 kts | 62° |
| 2026-05-07 04:55 | -4.17375 | -166.32685 | 32842 ft | 511 kts | 62° |
| 2026-05-07 04:56 | -4.14259 | -166.26323 | 32844 ft | 511 kts | 62° |
| 2026-05-07 04:56 | -4.11125 | -166.19924 | 32845 ft | 511 kts | 62° |
| 2026-05-07 04:57 | -4.07993 | -166.13532 | 32863 ft | 511 kts | 62° |
| 2026-05-07 04:57 | -4.04863 | -166.07144 | 32867 ft | 510 kts | 62° |
| 2026-05-07 04:58 | -4.01736 | -166.00765 | 32847 ft | 510 kts | 62° |
| 2026-05-07 04:58 | -3.98609 | -165.94388 | 32845 ft | 509 kts | 62° |
| 2026-05-07 04:59 | -3.95486 | -165.88020 | 32844 ft | 509 kts | 62° |
| 2026-05-07 04:59 | -3.92382 | -165.81692 | 32847 ft | 508 kts | 62° |
| 2026-05-07 05:00 | -3.89268 | -165.75344 | 32861 ft | 508 kts | 62° |
| 2026-05-07 05:00 | -3.86150 | -165.68991 | 32844 ft | 508 kts | 62° |
| 2026-05-07 05:01 | -3.83035 | -165.62646 | 32841 ft | 507 kts | 62° |
| 2026-05-07 05:01 | -3.79921 | -165.56303 | 32846 ft | 507 kts | 62° |
| 2026-05-07 05:02 | -3.76828 | -165.50003 | 32862 ft | 507 kts | 62° |
| 2026-05-07 05:02 | -3.73717 | -165.43670 | 32864 ft | 507 kts | 63° |
| 2026-05-07 05:03 | -3.70602 | -165.37331 | 32868 ft | 507 kts | 62° |
| 2026-05-07 05:03 | -3.67487 | -165.30992 | 32856 ft | 507 kts | 62° |
| 2026-05-07 05:04 | -3.64371 | -165.24651 | 32843 ft | 507 kts | 62° |
| 2026-05-07 05:04 | -3.61258 | -165.18318 | 32845 ft | 507 kts | 62° |
| 2026-05-07 05:05 | -3.58138 | -165.11975 | 32858 ft | 507 kts | 62° |
| 2026-05-07 05:05 | -3.55017 | -165.05628 | 32859 ft | 508 kts | 63° |
| 2026-05-07 05:06 | -3.51900 | -164.99293 | 32863 ft | 507 kts | 62° |
| 2026-05-07 05:06 | -3.48779 | -164.92949 | 32858 ft | 507 kts | 62° |
| 2026-05-07 05:07 | -3.45667 | -164.86624 | 32858 ft | 507 kts | 63° |
| 2026-05-07 05:07 | -3.42550 | -164.80293 | 32857 ft | 507 kts | 63° |
| 2026-05-07 05:08 | -3.39452 | -164.74000 | 32857 ft | 507 kts | 63° |
| 2026-05-07 05:08 | -3.36317 | -164.67634 | 32855 ft | 507 kts | 63° |
| 2026-05-07 05:09 | -3.33218 | -164.61341 | 32856 ft | 507 kts | 62° |
| 2026-05-07 05:09 | -3.30103 | -164.55017 | 32857 ft | 507 kts | 62° |
| 2026-05-07 05:10 | -3.26987 | -164.48693 | 32864 ft | 507 kts | 63° |
| 2026-05-07 05:10 | -3.23868 | -164.42363 | 32857 ft | 507 kts | 62° |
| 2026-05-07 05:11 | -3.20746 | -164.36028 | 32869 ft | 506 kts | 63° |
| 2026-05-07 05:11 | -3.17624 | -164.29695 | 32864 ft | 507 kts | 62° |
| 2026-05-07 05:12 | -3.14502 | -164.23364 | 32860 ft | 508 kts | 62° |
| 2026-05-07 05:12 | -3.11373 | -164.17021 | 32861 ft | 508 kts | 63° |
| 2026-05-07 05:13 | -3.08246 | -164.10680 | 32864 ft | 508 kts | 62° |
| 2026-05-07 05:13 | -3.05138 | -164.04378 | 32865 ft | 508 kts | 62° |
| 2026-05-07 05:14 | -3.02003 | -163.98026 | 32834 ft | 509 kts | 63° |
| 2026-05-07 05:14 | -2.98869 | -163.91674 | 32855 ft | 509 kts | 63° |
| 2026-05-07 05:15 | -2.95728 | -163.85312 | 32860 ft | 510 kts | 63° |
| 2026-05-07 05:15 | -2.92582 | -163.78940 | 32864 ft | 510 kts | 63° |
| 2026-05-07 05:16 | -2.89443 | -163.72583 | 32868 ft | 510 kts | 63° |
| 2026-05-07 05:16 | -2.86301 | -163.66220 | 32868 ft | 510 kts | 63° |
| 2026-05-07 05:17 | -2.83159 | -163.59859 | 32856 ft | 510 kts | 63° |
| 2026-05-07 05:17 | -2.80014 | -163.53492 | 32858 ft | 510 kts | 62° |
| 2026-05-07 05:18 | -2.76871 | -163.47132 | 32861 ft | 511 kts | 63° |
| 2026-05-07 05:18 | -2.73739 | -163.40792 | 32862 ft | 511 kts | 63° |
| 2026-05-07 05:19 | -2.70586 | -163.34415 | 32863 ft | 511 kts | 63° |
| 2026-05-07 05:19 | -2.67437 | -163.28045 | 32858 ft | 511 kts | 63° |
| 2026-05-07 05:20 | -2.64277 | -163.21652 | 32865 ft | 512 kts | 63° |
| 2026-05-07 05:20 | -2.61120 | -163.15268 | 32868 ft | 512 kts | 63° |
| 2026-05-07 05:21 | -2.56385 | -163.05693 | 32869 ft | 512 kts | 63° |
| 2026-05-07 05:22 | -2.53224 | -162.99304 | 32873 ft | 512 kts | 63° |
| 2026-05-07 05:22 | -2.50063 | -162.92916 | 32860 ft | 512 kts | 63° |
| 2026-05-07 05:23 | -2.46920 | -162.86563 | 32865 ft | 513 kts | 63° |
| 2026-05-07 05:23 | -2.43737 | -162.80132 | 32868 ft | 513 kts | 63° |
| 2026-05-07 05:24 | -2.40592 | -162.73778 | 32873 ft | 513 kts | 63° |
| 2026-05-07 05:24 | -2.37423 | -162.67374 | 32875 ft | 513 kts | 63° |
| 2026-05-07 05:25 | -2.34250 | -162.60966 | 32873 ft | 513 kts | 63° |
| 2026-05-07 05:25 | -2.31077 | -162.54559 | 32867 ft | 514 kts | 63° |
| 2026-05-07 05:26 | -2.27907 | -162.48156 | 32867 ft | 514 kts | 63° |
| 2026-05-07 05:26 | -2.24746 | -162.41775 | 32866 ft | 515 kts | 63° |
| 2026-05-07 05:27 | -2.21564 | -162.35351 | 32870 ft | 515 kts | 63° |
| 2026-05-07 05:27 | -2.18386 | -162.28937 | 32876 ft | 515 kts | 63° |
| 2026-05-07 05:28 | -2.15209 | -162.22526 | 32869 ft | 515 kts | 63° |
| 2026-05-07 05:28 | -2.12022 | -162.16093 | 32876 ft | 515 kts | 63° |
| 2026-05-07 05:29 | -2.08832 | -162.09658 | 32881 ft | 516 kts | 63° |
| 2026-05-07 05:29 | -2.05647 | -162.03233 | 32881 ft | 516 kts | 63° |
| 2026-05-07 05:30 | -2.02459 | -161.96800 | 32875 ft | 516 kts | 63° |
| 2026-05-07 05:30 | -1.99289 | -161.90408 | 32874 ft | 516 kts | 63° |
| 2026-05-07 05:31 | -1.96096 | -161.83968 | 32869 ft | 517 kts | 63° |
| 2026-05-07 05:31 | -1.92898 | -161.77521 | 32867 ft | 517 kts | 63° |
| 2026-05-07 05:32 | -1.89708 | -161.71087 | 32871 ft | 517 kts | 63° |
| 2026-05-07 05:32 | -1.86511 | -161.64643 | 32878 ft | 517 kts | 63° |
| 2026-05-07 05:33 | -1.83316 | -161.58202 | 32882 ft | 517 kts | 63° |
| 2026-05-07 05:33 | -1.80121 | -161.51761 | 32878 ft | 517 kts | 63° |
| 2026-05-07 05:34 | -1.76942 | -161.45355 | 32878 ft | 517 kts | 63° |
| 2026-05-07 05:34 | -1.73742 | -161.38905 | 32873 ft | 518 kts | 63° |
| 2026-05-07 05:35 | -1.70538 | -161.32449 | 32876 ft | 518 kts | 63° |
| 2026-05-07 05:35 | -1.67331 | -161.25987 | 32876 ft | 518 kts | 63° |
| 2026-05-07 05:36 | -1.64126 | -161.19531 | 32874 ft | 518 kts | 63° |
| 2026-05-07 05:36 | -1.60922 | -161.13079 | 32881 ft | 518 kts | 63° |
| 2026-05-07 05:37 | -1.57719 | -161.06628 | 32882 ft | 518 kts | 63° |
| 2026-05-07 05:37 | -1.54532 | -161.00208 | 32883 ft | 518 kts | 63° |
| 2026-05-07 05:38 | -1.51340 | -160.93780 | 32887 ft | 518 kts | 63° |
| 2026-05-07 05:38 | -1.48127 | -160.87309 | 32879 ft | 518 kts | 63° |
| 2026-05-07 05:39 | -1.45463 | -160.81946 | 32883 ft | 518 kts | 63° |
| 2026-05-07 05:39 | -1.42260 | -160.75497 | 32883 ft | 517 kts | 63° |
| 2026-05-07 05:40 | -1.39062 | -160.69059 | 32881 ft | 517 kts | 63° |
| 2026-05-07 05:40 | -1.35861 | -160.62616 | 32872 ft | 517 kts | 63° |
| 2026-05-07 05:41 | -1.32663 | -160.56179 | 32873 ft | 517 kts | 63° |
| 2026-05-07 05:41 | -1.29467 | -160.49746 | 32886 ft | 516 kts | 63° |
| 2026-05-07 05:42 | -1.26275 | -160.43322 | 32881 ft | 516 kts | 63° |
| 2026-05-07 05:42 | -1.23082 | -160.36897 | 32882 ft | 516 kts | 63° |
| 2026-05-07 05:43 | -1.19891 | -160.30477 | 32880 ft | 515 kts | 63° |
| 2026-05-07 05:43 | -1.16726 | -160.24106 | 32876 ft | 515 kts | 63° |
| 2026-05-07 05:44 | -1.13534 | -160.17685 | 32876 ft | 515 kts | 63° |
| 2026-05-07 05:44 | -1.10348 | -160.11275 | 32875 ft | 515 kts | 63° |
| 2026-05-07 05:45 | -1.07156 | -160.04855 | 32872 ft | 515 kts | 63° |
| 2026-05-07 05:45 | -1.03967 | -159.98440 | 32875 ft | 515 kts | 63° |
| 2026-05-07 05:46 | -1.00784 | -159.92038 | 32877 ft | 515 kts | 63° |
| 2026-05-07 05:46 | -0.97584 | -159.85602 | 32883 ft | 516 kts | 63° |
| 2026-05-07 05:47 | -0.94414 | -159.79226 | 32884 ft | 516 kts | 63° |
| 2026-05-07 05:47 | -0.91214 | -159.72791 | 32881 ft | 517 kts | 63° |
| 2026-05-07 05:48 | -0.88014 | -159.66355 | 32878 ft | 517 kts | 63° |
| 2026-05-07 05:48 | -0.84816 | -159.59925 | 32878 ft | 517 kts | 63° |
| 2026-05-07 05:49 | -0.81612 | -159.53483 | 32880 ft | 517 kts | 63° |
| 2026-05-07 05:49 | -0.78413 | -159.47049 | 32884 ft | 517 kts | 63° |
| 2026-05-07 05:50 | -0.75212 | -159.40616 | 32882 ft | 517 kts | 63° |
| 2026-05-07 05:50 | -0.72014 | -159.34186 | 32888 ft | 516 kts | 63° |
| 2026-05-07 05:51 | -0.68839 | -159.27801 | 32887 ft | 516 kts | 63° |
| 2026-05-07 05:51 | -0.65640 | -159.21371 | 32883 ft | 516 kts | 63° |
| 2026-05-07 05:52 | -0.62459 | -159.14977 | 32870 ft | 517 kts | 63° |
| 2026-05-07 05:52 | -0.59254 | -159.08535 | 32868 ft | 517 kts | 63° |
| 2026-05-07 05:53 | -0.56057 | -159.02108 | 32875 ft | 517 kts | 63° |
| 2026-05-07 05:53 | -0.52855 | -158.95672 | 32880 ft | 517 kts | 63° |
| 2026-05-07 05:54 | -0.49650 | -158.89231 | 32886 ft | 517 kts | 63° |
| 2026-05-07 05:54 | -0.46459 | -158.82815 | 32886 ft | 518 kts | 63° |
| 2026-05-07 05:55 | -0.43252 | -158.76371 | 32885 ft | 518 kts | 63° |
| 2026-05-07 05:55 | -0.40044 | -158.69922 | 32887 ft | 518 kts | 63° |
| 2026-05-07 05:56 | -0.36837 | -158.63477 | 32887 ft | 518 kts | 63° |
| 2026-05-07 05:56 | -0.33622 | -158.57018 | 32877 ft | 519 kts | 63° |
| 2026-05-07 05:57 | -0.30407 | -158.50557 | 32885 ft | 519 kts | 63° |
| 2026-05-07 05:57 | -0.27190 | -158.44091 | 32895 ft | 520 kts | 63° |
| 2026-05-07 05:58 | -0.23967 | -158.37615 | 32901 ft | 520 kts | 63° |
| 2026-05-07 05:58 | -0.20765 | -158.31179 | 32895 ft | 520 kts | 63° |
| 2026-05-07 05:59 | -0.17539 | -158.24696 | 32892 ft | 520 kts | 63° |
| 2026-05-07 05:59 | -0.14312 | -158.18211 | 32878 ft | 521 kts | 63° |
| 2026-05-07 06:00 | -0.11091 | -158.11738 | 32889 ft | 520 kts | 63° |
| 2026-05-07 06:00 | -0.07890 | -158.05306 | 32896 ft | 520 kts | 63° |
| 2026-05-07 06:01 | -0.04673 | -157.98841 | 32902 ft | 520 kts | 63° |
| 2026-05-07 06:01 | -0.01454 | -157.92372 | 32905 ft | 519 kts | 63° |
| 2026-05-07 06:02 | 0.01763 | -157.85907 | 32891 ft | 520 kts | 63° |
| 2026-05-07 06:02 | 0.04991 | -157.79421 | 32888 ft | 520 kts | 63° |
| 2026-05-07 06:03 | 0.08211 | -157.72951 | 32882 ft | 520 kts | 63° |
| 2026-05-07 06:03 | 0.11402 | -157.66538 | 32889 ft | 520 kts | 63° |
| 2026-05-07 06:04 | 0.14626 | -157.60060 | 32896 ft | 520 kts | 63° |
| 2026-05-07 06:04 | 0.17844 | -157.53593 | 32902 ft | 520 kts | 63° |
| 2026-05-07 06:05 | 0.21070 | -157.47111 | 32888 ft | 520 kts | 63° |
| 2026-05-07 06:05 | 0.24294 | -157.40631 | 32888 ft | 521 kts | 63° |
| 2026-05-07 06:06 | 0.27522 | -157.34145 | 32880 ft | 522 kts | 63° |
| 2026-05-07 06:06 | 0.30750 | -157.27658 | 32884 ft | 522 kts | 63° |
| 2026-05-07 06:07 | 0.33980 | -157.21168 | 32896 ft | 521 kts | 63° |
| 2026-05-07 06:07 | 0.37185 | -157.14725 | 32904 ft | 521 kts | 63° |
| 2026-05-07 06:08 | 0.40413 | -157.08237 | 32911 ft | 521 kts | 63° |
| 2026-05-07 06:08 | 0.43647 | -157.01738 | 32903 ft | 521 kts | 63° |
| 2026-05-07 06:09 | 0.46877 | -156.95247 | 32893 ft | 521 kts | 63° |
| 2026-05-07 06:09 | 0.50103 | -156.88763 | 32890 ft | 521 kts | 63° |
| 2026-05-07 06:10 | 0.53309 | -156.82320 | 32895 ft | 521 kts | 63° |
| 2026-05-07 06:10 | 0.56535 | -156.75836 | 32901 ft | 520 kts | 63° |
| 2026-05-07 06:11 | 0.59759 | -156.69354 | 32913 ft | 520 kts | 63° |
| 2026-05-07 06:11 | 0.62988 | -156.62864 | 32900 ft | 520 kts | 63° |
| 2026-05-07 06:12 | 0.66212 | -156.56382 | 32889 ft | 521 kts | 64° |
| 2026-05-07 06:12 | 0.69426 | -156.49921 | 32880 ft | 521 kts | 64° |
| 2026-05-07 06:13 | 0.72632 | -156.43475 | 32892 ft | 521 kts | 63° |
| 2026-05-07 06:13 | 0.75860 | -156.36985 | 32905 ft | 521 kts | 63° |
| 2026-05-07 06:14 | 0.79089 | -156.30494 | 32917 ft | 521 kts | 63° |
| 2026-05-07 06:14 | 0.82317 | -156.24004 | 32904 ft | 522 kts | 64° |
| 2026-05-07 06:15 | 0.85553 | -156.17496 | 32894 ft | 522 kts | 64° |
| 2026-05-07 06:15 | 0.88790 | -156.10987 | 32885 ft | 523 kts | 64° |
| 2026-05-07 06:16 | 0.92007 | -156.04518 | 32897 ft | 524 kts | 64° |
| 2026-05-07 06:16 | 0.95251 | -155.97995 | 32908 ft | 523 kts | 64° |
| 2026-05-07 06:17 | 0.98492 | -155.91476 | 32921 ft | 523 kts | 64° |
| 2026-05-07 06:17 | 1.01734 | -155.84956 | 32912 ft | 523 kts | 64° |
| 2026-05-07 06:18 | 1.05163 | -155.78542 | 32898 ft | 524 kts | 56° |
| 2026-05-07 06:18 | 1.09741 | -155.72902 | 32896 ft | 523 kts | 44° |
| 2026-05-07 06:19 | 1.15049 | -155.67923 | 32902 ft | 523 kts | 43° |
| 2026-05-07 06:19 | 1.20302 | -155.62956 | 32908 ft | 522 kts | 43° |
| 2026-05-07 06:20 | 1.25551 | -155.57999 | 32897 ft | 523 kts | 43° |
| 2026-05-07 06:20 | 1.30850 | -155.53003 | 32892 ft | 523 kts | 43° |
| 2026-05-07 06:21 | 1.36151 | -155.48005 | 32903 ft | 523 kts | 43° |
| 2026-05-07 06:21 | 1.41451 | -155.43008 | 32916 ft | 523 kts | 43° |
| 2026-05-07 06:22 | 1.46754 | -155.38007 | 32911 ft | 524 kts | 43° |
| 2026-05-07 06:22 | 1.54683 | -155.30530 | 32920 ft | 524 kts | 43° |
| 2026-05-07 06:23 | 1.59988 | -155.25527 | 32903 ft | 524 kts | 43° |
| 2026-05-07 06:23 | 1.65299 | -155.20517 | 32901 ft | 525 kts | 43° |
| 2026-05-07 06:24 | 1.70601 | -155.15516 | 32913 ft | 524 kts | 43° |
| 2026-05-07 06:24 | 1.75907 | -155.10511 | 32913 ft | 524 kts | 43° |
| 2026-05-07 06:25 | 1.81221 | -155.05497 | 32906 ft | 524 kts | 43° |
| 2026-05-07 06:25 | 1.86501 | -155.00515 | 32905 ft | 524 kts | 43° |
| 2026-05-07 06:26 | 1.91807 | -154.95509 | 32915 ft | 524 kts | 43° |
| 2026-05-07 06:26 | 1.97125 | -154.90491 | 32914 ft | 524 kts | 43° |
| 2026-05-07 06:27 | 2.01531 | -154.86333 | 32909 ft | 524 kts | 43° |
| 2026-05-07 06:27 | 2.07695 | -154.80515 | 32907 ft | 524 kts | 43° |
| 2026-05-07 06:28 | 2.12996 | -154.75511 | 32916 ft | 524 kts | 43° |
| 2026-05-07 06:28 | 2.17438 | -154.71318 | 32922 ft | 524 kts | 43° |
| 2026-05-07 06:29 | 2.22703 | -154.66346 | 32910 ft | 524 kts | 43° |
| 2026-05-07 06:29 | 2.28006 | -154.61339 | 32899 ft | 524 kts | 43° |
| 2026-05-07 06:30 | 2.33306 | -154.56335 | 32909 ft | 524 kts | 43° |
| 2026-05-07 06:30 | 2.38605 | -154.51330 | 32916 ft | 523 kts | 43° |
| 2026-05-07 06:31 | 2.43901 | -154.46329 | 32929 ft | 523 kts | 43° |
| 2026-05-07 06:31 | 2.49188 | -154.41333 | 32917 ft | 522 kts | 43° |
| 2026-05-07 06:32 | 2.54431 | -154.36380 | 32927 ft | 521 kts | 43° |
| 2026-05-07 06:32 | 2.59698 | -154.31403 | 32935 ft | 520 kts | 43° |
| 2026-05-07 06:33 | 2.64951 | -154.26440 | 32921 ft | 520 kts | 43° |
| 2026-05-07 06:33 | 2.70203 | -154.21477 | 32918 ft | 519 kts | 43° |
| 2026-05-07 06:34 | 2.75448 | -154.16519 | 32919 ft | 518 kts | 43° |
| 2026-05-07 06:34 | 2.80658 | -154.11594 | 32943 ft | 515 kts | 43° |
| 2026-05-07 06:35 | 2.85870 | -154.06666 | 32932 ft | 514 kts | 43° |
| 2026-05-07 06:35 | 2.91064 | -154.01755 | 32925 ft | 513 kts | 43° |
| 2026-05-07 06:36 | 2.96244 | -153.96857 | 32918 ft | 512 kts | 43° |
| 2026-05-07 06:36 | 3.01423 | -153.91958 | 32910 ft | 511 kts | 43° |
| 2026-05-07 06:37 | 3.06582 | -153.87078 | 32904 ft | 510 kts | 43° |
| 2026-05-07 06:37 | 3.11740 | -153.82198 | 32917 ft | 509 kts | 43° |
| 2026-05-07 06:38 | 3.16847 | -153.77366 | 32908 ft | 508 kts | 44° |
| 2026-05-07 06:38 | 3.21987 | -153.72501 | 32911 ft | 507 kts | 43° |
| 2026-05-07 06:39 | 3.27115 | -153.67648 | 32907 ft | 507 kts | 43° |
| 2026-05-07 06:39 | 3.32239 | -153.62797 | 32899 ft | 506 kts | 43° |
| 2026-05-07 06:40 | 3.37360 | -153.57949 | 32898 ft | 506 kts | 43° |
| 2026-05-07 06:40 | 3.42473 | -153.53107 | 32900 ft | 506 kts | 43° |
| 2026-05-07 06:41 | 3.47583 | -153.48268 | 32906 ft | 505 kts | 43° |
| 2026-05-07 06:41 | 3.52687 | -153.43433 | 32898 ft | 505 kts | 43° |
| 2026-05-07 06:42 | 3.57793 | -153.38597 | 32895 ft | 505 kts | 43° |
| 2026-05-07 06:42 | 3.62862 | -153.33794 | 32898 ft | 505 kts | 43° |
| 2026-05-07 06:43 | 3.67959 | -153.28963 | 32899 ft | 504 kts | 43° |
| 2026-05-07 06:43 | 3.73061 | -153.24128 | 32899 ft | 505 kts | 43° |
| 2026-05-07 06:44 | 3.78159 | -153.19294 | 32893 ft | 505 kts | 43° |
| 2026-05-07 06:44 | 3.83263 | -153.14456 | 32898 ft | 505 kts | 43° |
| 2026-05-07 06:45 | 3.88366 | -153.09615 | 32887 ft | 506 kts | 43° |
| 2026-05-07 06:45 | 3.93481 | -153.04765 | 32888 ft | 506 kts | 43° |
| 2026-05-07 06:46 | 3.98592 | -152.99916 | 32894 ft | 506 kts | 43° |
| 2026-05-07 06:46 | 4.03707 | -152.95063 | 32901 ft | 507 kts | 43° |
| 2026-05-07 06:47 | 4.08831 | -152.90200 | 32910 ft | 507 kts | 43° |
| 2026-05-07 06:47 | 4.13959 | -152.85333 | 32912 ft | 507 kts | 43° |
| 2026-05-07 06:48 | 4.19049 | -152.80501 | 32927 ft | 507 kts | 43° |
| 2026-05-07 06:48 | 4.24166 | -152.75642 | 32930 ft | 507 kts | 43° |
| 2026-05-07 06:49 | 4.29281 | -152.70785 | 32917 ft | 507 kts | 43° |
| 2026-05-07 06:49 | 4.34398 | -152.65924 | 32914 ft | 506 kts | 43° |
| 2026-05-07 06:50 | 4.39509 | -152.61068 | 32923 ft | 506 kts | 43° |
| 2026-05-07 06:50 | 4.44616 | -152.56217 | 32919 ft | 506 kts | 44° |
| 2026-05-07 06:51 | 4.49720 | -152.51364 | 32916 ft | 506 kts | 43° |
| 2026-05-07 06:51 | 4.54826 | -152.46510 | 32920 ft | 505 kts | 43° |
| 2026-05-07 06:52 | 4.59924 | -152.41663 | 32923 ft | 505 kts | 43° |
| 2026-05-07 06:52 | 4.65017 | -152.36819 | 32914 ft | 505 kts | 43° |
| 2026-05-07 06:53 | 4.70116 | -152.31969 | 32909 ft | 505 kts | 43° |
| 2026-05-07 06:53 | 4.75209 | -152.27124 | 32914 ft | 504 kts | 43° |
| 2026-05-07 06:54 | 4.80299 | -152.22279 | 32911 ft | 504 kts | 43° |
| 2026-05-07 06:54 | 4.85359 | -152.17463 | 32895 ft | 505 kts | 43° |
| 2026-05-07 06:55 | 4.90463 | -152.12604 | 32901 ft | 505 kts | 43° |
| 2026-05-07 06:55 | 4.95566 | -152.07745 | 32907 ft | 506 kts | 43° |
| 2026-05-07 06:56 | 5.00673 | -152.02880 | 32908 ft | 506 kts | 43° |
| 2026-05-07 06:56 | 5.05785 | -151.98010 | 32895 ft | 507 kts | 43° |
| 2026-05-07 06:57 | 5.10879 | -151.93156 | 32898 ft | 509 kts | 43° |
| 2026-05-07 06:57 | 5.16010 | -151.88264 | 32934 ft | 508 kts | 44° |
| 2026-05-07 06:58 | 5.21135 | -151.83379 | 32926 ft | 508 kts | 44° |
| 2026-05-07 06:58 | 5.26257 | -151.78494 | 32934 ft | 508 kts | 44° |
| 2026-05-07 06:59 | 5.31370 | -151.73618 | 32932 ft | 507 kts | 44° |
| 2026-05-07 06:59 | 5.36486 | -151.68736 | 32924 ft | 507 kts | 44° |
| 2026-05-07 07:00 | 5.41586 | -151.63869 | 32936 ft | 506 kts | 44° |
| 2026-05-07 07:00 | 5.46690 | -151.58998 | 32938 ft | 505 kts | 44° |
| 2026-05-07 07:01 | 5.51784 | -151.54135 | 32921 ft | 506 kts | 44° |
| 2026-05-07 07:01 | 5.56880 | -151.49268 | 32922 ft | 505 kts | 44° |
| 2026-05-07 07:02 | 5.61969 | -151.44408 | 32931 ft | 505 kts | 44° |
| 2026-05-07 07:02 | 5.67059 | -151.39544 | 32920 ft | 505 kts | 44° |
| 2026-05-07 07:03 | 5.72117 | -151.34711 | 32914 ft | 505 kts | 44° |
| 2026-05-07 07:03 | 5.77198 | -151.29853 | 32919 ft | 505 kts | 44° |
| 2026-05-07 07:04 | 5.82285 | -151.24989 | 32917 ft | 505 kts | 44° |
| 2026-05-07 07:04 | 5.87369 | -151.20126 | 32916 ft | 505 kts | 44° |
| 2026-05-07 07:05 | 5.92462 | -151.15254 | 32921 ft | 505 kts | 44° |
| 2026-05-07 07:05 | 5.97552 | -151.10382 | 32922 ft | 505 kts | 44° |
| 2026-05-07 07:06 | 6.02629 | -151.05523 | 32907 ft | 505 kts | 44° |
| 2026-05-07 07:06 | 6.07686 | -151.00682 | 32912 ft | 506 kts | 44° |
| 2026-05-07 07:07 | 6.12787 | -150.95795 | 32918 ft | 506 kts | 44° |
| 2026-05-07 07:07 | 6.17882 | -150.90915 | 32914 ft | 507 kts | 44° |
| 2026-05-07 07:08 | 6.22984 | -150.86025 | 32922 ft | 507 kts | 44° |
| 2026-05-07 07:08 | 6.28085 | -150.81135 | 32928 ft | 507 kts | 44° |
| 2026-05-07 07:09 | 6.33197 | -150.76233 | 32935 ft | 507 kts | 44° |
| 2026-05-07 07:09 | 6.38299 | -150.71341 | 32932 ft | 507 kts | 44° |
| 2026-05-07 07:10 | 6.43407 | -150.66440 | 32940 ft | 507 kts | 44° |
| 2026-05-07 07:10 | 6.48509 | -150.61544 | 32928 ft | 507 kts | 44° |
| 2026-05-07 07:11 | 6.53609 | -150.56649 | 32932 ft | 507 kts | 44° |
| 2026-05-07 07:11 | 6.58678 | -150.51782 | 32939 ft | 507 kts | 44° |
| 2026-05-07 07:12 | 6.63783 | -150.46878 | 32917 ft | 507 kts | 44° |
| 2026-05-07 07:12 | 6.68889 | -150.41973 | 32933 ft | 507 kts | 44° |
| 2026-05-07 07:13 | 6.73991 | -150.37069 | 32936 ft | 507 kts | 44° |
| 2026-05-07 07:13 | 6.79063 | -150.32192 | 32929 ft | 507 kts | 44° |
| 2026-05-07 07:14 | 6.84161 | -150.27289 | 32935 ft | 507 kts | 44° |
| 2026-05-07 07:14 | 6.89212 | -150.22431 | 32938 ft | 507 kts | 44° |
| 2026-05-07 07:15 | 6.91819 | -150.19923 | 33063 ft | 511 kts | 44° |
| 2026-05-07 07:15 | 6.94388 | -150.17452 | 33635 ft | 509 kts | 44° |
| 2026-05-07 07:15 | 6.96942 | -150.14994 | 34213 ft | 505 kts | 44° |
| 2026-05-07 07:15 | 6.99479 | -150.12552 | 34672 ft | 505 kts | 44° |
| 2026-05-07 07:16 | 7.01153 | -150.10941 | 34988 ft | 503 kts | 44° |
| 2026-05-07 07:16 | 7.03685 | -150.08503 | 35409 ft | 502 kts | 43° |
| 2026-05-07 07:16 | 7.06205 | -150.06077 | 35865 ft | 502 kts | 43° |
| 2026-05-07 07:16 | 7.08723 | -150.03652 | 36331 ft | 500 kts | 43° |
| 2026-05-07 07:17 | 7.11233 | -150.01234 | 36744 ft | 500 kts | 43° |
| 2026-05-07 07:17 | 7.13754 | -149.98806 | 36914 ft | 500 kts | 43° |
| 2026-05-07 07:17 | 7.18749 | -149.93989 | 36936 ft | 495 kts | 43° |
| 2026-05-07 07:18 | 7.23738 | -149.89181 | 36937 ft | 497 kts | 43° |
| 2026-05-07 07:18 | 7.28768 | -149.84335 | 36943 ft | 501 kts | 42° |
| 2026-05-07 07:19 | 7.33807 | -149.79479 | 36938 ft | 501 kts | 42° |
| 2026-05-07 07:19 | 7.38845 | -149.74622 | 36943 ft | 501 kts | 42° |
| 2026-05-07 07:20 | 7.43884 | -149.69762 | 36940 ft | 501 kts | 42° |
| 2026-05-07 07:20 | 7.48889 | -149.64933 | 36939 ft | 501 kts | 42° |
| 2026-05-07 07:21 | 7.53925 | -149.60074 | 36941 ft | 501 kts | 42° |
| 2026-05-07 07:21 | 7.58973 | -149.55200 | 36924 ft | 503 kts | 42° |
| 2026-05-07 07:22 | 7.64035 | -149.50310 | 36926 ft | 505 kts | 42° |
| 2026-05-07 07:22 | 7.69120 | -149.45398 | 36941 ft | 507 kts | 42° |
| 2026-05-07 07:23 | 7.74213 | -149.40476 | 36959 ft | 508 kts | 43° |
| 2026-05-07 07:23 | 7.79314 | -149.35543 | 36960 ft | 508 kts | 42° |
| 2026-05-07 07:24 | 7.84424 | -149.30598 | 36966 ft | 509 kts | 42° |
| 2026-05-07 07:24 | 7.89513 | -149.25675 | 36953 ft | 510 kts | 42° |
| 2026-05-07 07:25 | 7.97196 | -149.18238 | 36960 ft | 510 kts | 42° |
| 2026-05-07 07:26 | 8.02311 | -149.13284 | 36951 ft | 510 kts | 42° |
| 2026-05-07 07:26 | 8.07428 | -149.08327 | 36964 ft | 510 kts | 42° |
| 2026-05-07 07:27 | 8.12515 | -149.03397 | 36959 ft | 509 kts | 42° |
| 2026-05-07 07:27 | 8.17667 | -148.98402 | 36929 ft | 511 kts | 43° |
| 2026-05-07 07:28 | 8.22762 | -148.93460 | 36949 ft | 512 kts | 43° |
| 2026-05-07 07:28 | 8.27909 | -148.88466 | 36944 ft | 513 kts | 43° |
| 2026-05-07 07:29 | 8.33057 | -148.83469 | 36964 ft | 514 kts | 43° |
| 2026-05-07 07:29 | 8.38217 | -148.78458 | 36968 ft | 515 kts | 43° |
| 2026-05-07 07:30 | 8.43380 | -148.73444 | 36969 ft | 515 kts | 43° |
| 2026-05-07 07:30 | 8.48558 | -148.68413 | 36976 ft | 516 kts | 43° |
| 2026-05-07 07:31 | 8.53740 | -148.63374 | 36955 ft | 517 kts | 43° |
| 2026-05-07 07:31 | 8.58930 | -148.58327 | 36976 ft | 517 kts | 43° |
| 2026-05-07 07:32 | 8.64115 | -148.53281 | 36973 ft | 517 kts | 43° |
| 2026-05-07 07:32 | 8.69266 | -148.48269 | 36970 ft | 518 kts | 43° |
| 2026-05-07 07:33 | 8.74439 | -148.43232 | 36983 ft | 517 kts | 43° |
| 2026-05-07 07:33 | 8.79625 | -148.38180 | 36963 ft | 517 kts | 43° |
| 2026-05-07 07:34 | 8.84807 | -148.33129 | 36975 ft | 517 kts | 43° |
| 2026-05-07 07:34 | 8.89986 | -148.28079 | 36969 ft | 517 kts | 43° |
| 2026-05-07 07:35 | 8.95168 | -148.23026 | 36962 ft | 517 kts | 43° |
| 2026-05-07 07:35 | 9.00344 | -148.17975 | 36987 ft | 516 kts | 43° |
| 2026-05-07 07:36 | 9.05517 | -148.12926 | 36958 ft | 517 kts | 43° |
| 2026-05-07 07:36 | 9.10696 | -148.07868 | 36972 ft | 517 kts | 43° |
| 2026-05-07 07:37 | 9.15879 | -148.02805 | 36970 ft | 518 kts | 43° |
| 2026-05-07 07:37 | 9.21060 | -147.97741 | 36974 ft | 518 kts | 43° |
| 2026-05-07 07:38 | 9.26211 | -147.92704 | 36987 ft | 518 kts | 43° |
| 2026-05-07 07:38 | 9.31395 | -147.87632 | 36974 ft | 519 kts | 42° |
| 2026-05-07 07:39 | 9.36598 | -147.82542 | 36975 ft | 519 kts | 42° |
| 2026-05-07 07:39 | 9.41794 | -147.77454 | 36978 ft | 520 kts | 42° |
| 2026-05-07 07:40 | 9.46994 | -147.72361 | 36983 ft | 520 kts | 42° |
| 2026-05-07 07:40 | 9.52202 | -147.67257 | 36985 ft | 521 kts | 42° |
| 2026-05-07 07:41 | 9.57411 | -147.62150 | 36995 ft | 520 kts | 42° |
| 2026-05-07 07:41 | 9.62617 | -147.57044 | 36980 ft | 521 kts | 42° |
| 2026-05-07 07:42 | 9.67789 | -147.51969 | 36982 ft | 521 kts | 42° |
| 2026-05-07 07:42 | 9.73003 | -147.46850 | 36983 ft | 521 kts | 42° |
| 2026-05-07 07:43 | 9.78217 | -147.41730 | 36984 ft | 521 kts | 42° |
| 2026-05-07 07:43 | 9.83425 | -147.36613 | 36999 ft | 521 kts | 43° |
| 2026-05-07 07:44 | 9.88627 | -147.31498 | 36994 ft | 520 kts | 43° |
| 2026-05-07 07:44 | 9.93822 | -147.26389 | 36988 ft | 519 kts | 43° |
| 2026-05-07 07:45 | 9.99002 | -147.21292 | 36980 ft | 519 kts | 43° |
| 2026-05-07 07:45 | 10.04147 | -147.16227 | 36978 ft | 518 kts | 43° |
| 2026-05-07 07:46 | 10.09321 | -147.11130 | 36980 ft | 518 kts | 43° |
| 2026-05-07 07:46 | 10.14487 | -147.06041 | 36980 ft | 518 kts | 43° |
| 2026-05-07 07:47 | 10.19666 | -147.00935 | 36959 ft | 519 kts | 42° |
| 2026-05-07 07:47 | 10.24847 | -146.95825 | 36963 ft | 520 kts | 42° |
| 2026-05-07 07:48 | 10.30039 | -146.90702 | 36983 ft | 521 kts | 42° |
| 2026-05-07 07:48 | 10.35235 | -146.85572 | 36991 ft | 521 kts | 42° |
| 2026-05-07 07:49 | 10.40436 | -146.80434 | 37000 ft | 521 kts | 42° |
| 2026-05-07 07:49 | 10.45601 | -146.75330 | 36970 ft | 522 kts | 42° |
| 2026-05-07 07:50 | 10.50812 | -146.70178 | 36980 ft | 523 kts | 42° |
| 2026-05-07 07:50 | 10.56026 | -146.65021 | 36987 ft | 523 kts | 42° |
| 2026-05-07 07:51 | 10.61241 | -146.59859 | 36995 ft | 523 kts | 42° |
| 2026-05-07 07:51 | 10.66460 | -146.54691 | 37004 ft | 523 kts | 42° |
| 2026-05-07 07:52 | 10.71668 | -146.49531 | 36989 ft | 523 kts | 42° |
| 2026-05-07 07:52 | 10.76884 | -146.44362 | 36985 ft | 523 kts | 42° |
| 2026-05-07 07:53 | 10.82071 | -146.39218 | 36979 ft | 524 kts | 42° |
| 2026-05-07 07:53 | 10.87298 | -146.34032 | 36988 ft | 525 kts | 42° |
| 2026-05-07 07:54 | 10.92534 | -146.28834 | 37004 ft | 524 kts | 42° |
| 2026-05-07 07:54 | 10.97753 | -146.23650 | 37003 ft | 524 kts | 42° |
| 2026-05-07 07:55 | 11.02944 | -146.18492 | 36980 ft | 524 kts | 42° |
| 2026-05-07 07:55 | 11.08160 | -146.13305 | 36978 ft | 525 kts | 42° |
| 2026-05-07 07:56 | 11.13382 | -146.08111 | 36982 ft | 525 kts | 42° |
| 2026-05-07 07:56 | 11.18607 | -146.02910 | 36990 ft | 525 kts | 42° |
| 2026-05-07 07:57 | 11.23831 | -145.97708 | 36989 ft | 525 kts | 42° |
| 2026-05-07 07:57 | 11.29067 | -145.92491 | 36985 ft | 527 kts | 42° |
| 2026-05-07 07:58 | 11.34306 | -145.87269 | 36993 ft | 527 kts | 42° |
| 2026-05-07 07:58 | 11.39554 | -145.82034 | 36997 ft | 528 kts | 42° |
| 2026-05-07 07:59 | 11.44806 | -145.76793 | 37026 ft | 528 kts | 42° |
| 2026-05-07 07:59 | 11.50064 | -145.71542 | 37017 ft | 529 kts | 42° |
| 2026-05-07 08:00 | 11.55314 | -145.66296 | 37007 ft | 528 kts | 41° |
| 2026-05-07 08:00 | 11.60568 | -145.61045 | 37006 ft | 529 kts | 41° |
| 2026-05-07 08:01 | 11.65822 | -145.55790 | 37001 ft | 528 kts | 41° |
| 2026-05-07 08:01 | 11.71032 | -145.50575 | 36997 ft | 528 kts | 42° |
| 2026-05-07 08:02 | 11.76284 | -145.45315 | 37006 ft | 529 kts | 42° |
| 2026-05-07 08:02 | 11.81531 | -145.40057 | 37005 ft | 529 kts | 41° |
| 2026-05-07 08:03 | 11.86787 | -145.34789 | 37008 ft | 529 kts | 41° |
| 2026-05-07 08:03 | 11.92042 | -145.29518 | 37008 ft | 529 kts | 41° |
| 2026-05-07 08:04 | 11.96417 | -145.25128 | 37001 ft | 530 kts | 42° |
| 2026-05-07 08:04 | 12.01669 | -145.19854 | 37011 ft | 530 kts | 42° |
| 2026-05-07 08:05 | 12.06945 | -145.14553 | 37013 ft | 531 kts | 41° |
| 2026-05-07 08:05 | 12.12208 | -145.09262 | 37014 ft | 531 kts | 42° |
| 2026-05-07 08:06 | 12.17452 | -145.03987 | 37029 ft | 532 kts | 42° |
| 2026-05-07 08:06 | 12.22726 | -144.98679 | 37028 ft | 531 kts | 42° |
| 2026-05-07 08:07 | 12.27989 | -144.93378 | 37022 ft | 531 kts | 42° |
| 2026-05-07 08:07 | 12.33260 | -144.88067 | 37020 ft | 531 kts | 41° |
| 2026-05-07 08:08 | 12.38519 | -144.82765 | 37019 ft | 531 kts | 42° |
| 2026-05-07 08:08 | 12.43781 | -144.77457 | 37015 ft | 531 kts | 42° |
| 2026-05-07 08:09 | 12.49003 | -144.72185 | 37014 ft | 530 kts | 42° |
| 2026-05-07 08:09 | 12.54254 | -144.66881 | 37016 ft | 530 kts | 42° |
| 2026-05-07 08:10 | 12.59503 | -144.61576 | 37013 ft | 530 kts | 42° |
| 2026-05-07 08:10 | 12.64758 | -144.56262 | 37016 ft | 530 kts | 42° |
| 2026-05-07 08:11 | 12.70001 | -144.50956 | 37014 ft | 530 kts | 42° |
| 2026-05-07 08:11 | 12.75243 | -144.45649 | 37021 ft | 530 kts | 42° |
| 2026-05-07 08:12 | 12.80452 | -144.40374 | 37025 ft | 530 kts | 42° |
| 2026-05-07 08:12 | 12.85691 | -144.35065 | 37017 ft | 530 kts | 42° |
| 2026-05-07 08:13 | 12.90941 | -144.29741 | 37022 ft | 530 kts | 42° |
| 2026-05-07 08:13 | 12.96189 | -144.24416 | 37023 ft | 530 kts | 42° |
| 2026-05-07 08:14 | 13.01426 | -144.19082 | 37024 ft | 531 kts | 43° |
| 2026-05-07 08:14 | 13.06660 | -144.13748 | 37028 ft | 531 kts | 43° |
| 2026-05-07 08:15 | 13.11904 | -144.08410 | 37028 ft | 531 kts | 43° |
| 2026-05-07 08:15 | 13.17145 | -144.03074 | 37029 ft | 531 kts | 43° |
| 2026-05-07 08:16 | 13.22366 | -143.97755 | 37036 ft | 531 kts | 43° |
| 2026-05-07 08:16 | 13.27607 | -143.92412 | 37034 ft | 531 kts | 43° |
| 2026-05-07 08:17 | 13.32841 | -143.87071 | 37029 ft | 530 kts | 43° |
| 2026-05-07 08:17 | 13.38073 | -143.81728 | 37025 ft | 530 kts | 43° |
| 2026-05-07 08:18 | 13.43309 | -143.76378 | 37031 ft | 531 kts | 43° |
| 2026-05-07 08:18 | 13.48541 | -143.71027 | 37033 ft | 530 kts | 42° |
| 2026-05-07 08:19 | 13.53762 | -143.65685 | 37034 ft | 530 kts | 42° |
| 2026-05-07 08:19 | 13.58992 | -143.60330 | 37029 ft | 530 kts | 42° |
| 2026-05-07 08:20 | 13.64188 | -143.55006 | 37028 ft | 530 kts | 42° |
| 2026-05-07 08:20 | 13.69417 | -143.49646 | 37028 ft | 530 kts | 42° |
| 2026-05-07 08:21 | 13.74648 | -143.44278 | 37031 ft | 531 kts | 42° |
| 2026-05-07 08:21 | 13.79875 | -143.38912 | 37033 ft | 531 kts | 43° |
| 2026-05-07 08:22 | 13.85107 | -143.33537 | 37028 ft | 532 kts | 42° |
| 2026-05-07 08:22 | 13.90343 | -143.28154 | 37032 ft | 532 kts | 42° |
| 2026-05-07 08:23 | 13.95583 | -143.22764 | 37045 ft | 532 kts | 42° |
| 2026-05-07 08:23 | 14.00781 | -143.17413 | 37044 ft | 532 kts | 42° |
| 2026-05-07 08:24 | 14.06010 | -143.12027 | 37043 ft | 532 kts | 42° |
| 2026-05-07 08:24 | 14.11252 | -143.06622 | 37031 ft | 532 kts | 42° |
| 2026-05-07 08:25 | 14.16491 | -143.01218 | 37034 ft | 532 kts | 42° |
| 2026-05-07 08:25 | 14.21720 | -142.95821 | 37045 ft | 532 kts | 42° |
| 2026-05-07 08:26 | 14.29532 | -142.87750 | 37043 ft | 532 kts | 42° |
| 2026-05-07 08:26 | 14.34754 | -142.82350 | 37035 ft | 532 kts | 42° |
| 2026-05-07 08:27 | 14.39983 | -142.76940 | 37036 ft | 532 kts | 42° |
| 2026-05-07 08:27 | 14.45205 | -142.71531 | 37049 ft | 532 kts | 42° |
| 2026-05-07 08:28 | 14.50432 | -142.66115 | 37048 ft | 532 kts | 42° |
| 2026-05-07 08:28 | 14.55649 | -142.60705 | 37048 ft | 531 kts | 41° |
| 2026-05-07 08:29 | 14.60837 | -142.55322 | 37033 ft | 532 kts | 41° |
| 2026-05-07 08:29 | 14.66060 | -142.49898 | 37048 ft | 532 kts | 41° |
| 2026-05-07 08:30 | 14.71278 | -142.44476 | 37048 ft | 532 kts | 41° |
| 2026-05-07 08:30 | 14.76493 | -142.39052 | 37045 ft | 532 kts | 41° |
| 2026-05-07 08:31 | 14.81712 | -142.33620 | 37038 ft | 532 kts | 41° |
| 2026-05-07 08:31 | 14.86933 | -142.28184 | 37037 ft | 532 kts | 41° |
| 2026-05-07 08:32 | 14.92114 | -142.22784 | 37049 ft | 532 kts | 41° |
| 2026-05-07 08:32 | 14.97323 | -142.17350 | 37049 ft | 531 kts | 41° |
| 2026-05-07 08:33 | 15.02526 | -142.11921 | 37047 ft | 531 kts | 41° |
| 2026-05-07 08:33 | 15.07728 | -142.06487 | 37044 ft | 531 kts | 41° |
| 2026-05-07 08:34 | 15.12930 | -142.01050 | 37057 ft | 531 kts | 41° |
| 2026-05-07 08:34 | 15.18121 | -141.95619 | 37058 ft | 530 kts | 41° |
| 2026-05-07 08:35 | 15.23306 | -141.90191 | 37051 ft | 530 kts | 41° |
| 2026-05-07 08:35 | 15.28488 | -141.84763 | 37046 ft | 530 kts | 41° |
| 2026-05-07 08:36 | 15.33666 | -141.79334 | 37044 ft | 530 kts | 41° |
| 2026-05-07 08:36 | 15.38846 | -141.73900 | 37047 ft | 530 kts | 41° |
| 2026-05-07 08:37 | 15.43994 | -141.68495 | 37049 ft | 530 kts | 41° |
| 2026-05-07 08:37 | 15.49184 | -141.63042 | 37059 ft | 531 kts | 41° |
| 2026-05-07 08:38 | 15.54372 | -141.57587 | 37045 ft | 532 kts | 41° |
| 2026-05-07 08:38 | 15.59567 | -141.52119 | 37054 ft | 532 kts | 41° |
| 2026-05-07 08:39 | 15.64765 | -141.46645 | 37060 ft | 532 kts | 41° |
| 2026-05-07 08:39 | 15.69965 | -141.41164 | 37064 ft | 533 kts | 41° |
| 2026-05-07 08:40 | 15.75170 | -141.35675 | 37061 ft | 533 kts | 41° |
| 2026-05-07 08:40 | 15.80367 | -141.30188 | 37066 ft | 533 kts | 41° |
| 2026-05-07 08:41 | 15.85532 | -141.24732 | 37066 ft | 533 kts | 41° |
| 2026-05-07 08:41 | 15.90722 | -141.19244 | 37065 ft | 532 kts | 41° |
| 2026-05-07 08:42 | 15.95911 | -141.13754 | 37075 ft | 532 kts | 41° |
| 2026-05-07 08:42 | 16.01096 | -141.08264 | 37071 ft | 532 kts | 41° |
| 2026-05-07 08:43 | 16.06273 | -141.02778 | 37061 ft | 531 kts | 41° |
| 2026-05-07 08:43 | 16.11442 | -140.97294 | 37064 ft | 531 kts | 41° |
| 2026-05-07 08:44 | 16.16608 | -140.91812 | 37075 ft | 530 kts | 41° |
| 2026-05-07 08:44 | 16.21768 | -140.86330 | 37083 ft | 529 kts | 42° |
| 2026-05-07 08:45 | 16.26914 | -140.80859 | 37083 ft | 528 kts | 42° |
| 2026-05-07 08:45 | 16.32053 | -140.75392 | 37077 ft | 527 kts | 42° |
| 2026-05-07 08:46 | 16.37181 | -140.69931 | 37079 ft | 527 kts | 42° |
| 2026-05-07 08:46 | 16.42268 | -140.64511 | 37044 ft | 527 kts | 41° |
| 2026-05-07 08:47 | 16.47394 | -140.59044 | 37053 ft | 527 kts | 41° |
| 2026-05-07 08:47 | 16.52527 | -140.53566 | 37059 ft | 527 kts | 41° |
| 2026-05-07 08:48 | 16.57651 | -140.48091 | 37061 ft | 528 kts | 41° |
| 2026-05-07 08:48 | 16.62785 | -140.42603 | 37031 ft | 530 kts | 40° |
| 2026-05-07 08:49 | 16.67938 | -140.37090 | 37057 ft | 532 kts | 41° |
| 2026-05-07 08:49 | 16.73114 | -140.31547 | 37076 ft | 533 kts | 41° |
| 2026-05-07 08:50 | 16.78273 | -140.26018 | 37090 ft | 535 kts | 41° |
| 2026-05-07 08:50 | 16.83472 | -140.20441 | 37081 ft | 537 kts | 40° |
| 2026-05-07 08:51 | 16.88676 | -140.14854 | 37099 ft | 537 kts | 41° |
| 2026-05-07 08:51 | 16.93890 | -140.09252 | 37113 ft | 537 kts | 41° |
| 2026-05-07 08:52 | 16.98213 | -140.04604 | 37098 ft | 537 kts | 41° |
| 2026-05-07 08:52 | 17.03423 | -139.98997 | 37099 ft | 536 kts | 41° |
| 2026-05-07 08:53 | 17.08613 | -139.93406 | 37108 ft | 535 kts | 41° |
| 2026-05-07 08:53 | 17.13793 | -139.87823 | 37111 ft | 534 kts | 41° |
| 2026-05-07 08:54 | 17.18964 | -139.82244 | 37098 ft | 533 kts | 41° |
| 2026-05-07 08:54 | 17.24125 | -139.76672 | 37098 ft | 533 kts | 41° |
| 2026-05-07 08:55 | 17.29248 | -139.71135 | 37094 ft | 532 kts | 41° |
| 2026-05-07 08:55 | 17.34393 | -139.65570 | 37089 ft | 532 kts | 41° |
| 2026-05-07 08:56 | 17.39535 | -139.60004 | 37090 ft | 531 kts | 41° |
| 2026-05-07 08:56 | 17.44668 | -139.54442 | 37085 ft | 531 kts | 41° |
| 2026-05-07 08:57 | 17.49794 | -139.48883 | 37102 ft | 530 kts | 41° |
| 2026-05-07 08:57 | 17.54917 | -139.43323 | 37100 ft | 530 kts | 41° |
| 2026-05-07 08:58 | 17.60037 | -139.37761 | 37097 ft | 529 kts | 41° |
| 2026-05-07 08:58 | 17.65144 | -139.32209 | 37093 ft | 529 kts | 41° |
| 2026-05-07 08:59 | 17.70244 | -139.26659 | 37101 ft | 528 kts | 41° |
| 2026-05-07 08:59 | 17.75343 | -139.21105 | 37100 ft | 528 kts | 41° |
| 2026-05-07 09:00 | 17.80434 | -139.15555 | 37093 ft | 528 kts | 41° |
| 2026-05-07 09:00 | 17.85521 | -139.10005 | 37095 ft | 527 kts | 41° |
| 2026-05-07 09:01 | 17.90576 | -139.04485 | 37089 ft | 528 kts | 41° |
| 2026-05-07 09:01 | 17.95660 | -138.98929 | 37099 ft | 527 kts | 41° |
| 2026-05-07 09:02 | 18.00746 | -138.93364 | 37094 ft | 527 kts | 41° |
| 2026-05-07 09:02 | 18.05827 | -138.87801 | 37099 ft | 527 kts | 41° |
| 2026-05-07 09:03 | 18.10916 | -138.82224 | 37082 ft | 529 kts | 41° |
| 2026-05-07 09:03 | 18.16017 | -138.76629 | 37097 ft | 530 kts | 41° |
| 2026-05-07 09:04 | 18.21126 | -138.71021 | 37104 ft | 531 kts | 41° |
| 2026-05-07 09:04 | 18.26242 | -138.65399 | 37120 ft | 532 kts | 41° |
| 2026-05-07 09:05 | 18.31368 | -138.59761 | 37114 ft | 533 kts | 41° |
| 2026-05-07 09:05 | 18.36464 | -138.54150 | 37127 ft | 534 kts | 41° |
| 2026-05-07 09:06 | 18.41591 | -138.48501 | 37114 ft | 534 kts | 41° |
| 2026-05-07 09:06 | 18.46723 | -138.42840 | 37127 ft | 533 kts | 41° |
| 2026-05-07 09:07 | 18.51844 | -138.37188 | 37134 ft | 533 kts | 41° |
| 2026-05-07 09:07 | 18.56958 | -138.31537 | 37133 ft | 532 kts | 41° |
| 2026-05-07 09:08 | 18.62089 | -138.25866 | 37578 ft | 534 kts | 41° |
| 2026-05-07 09:08 | 18.64645 | -138.23038 | 38095 ft | 532 kts | 41° |
| 2026-05-07 09:08 | 18.67197 | -138.20214 | 38554 ft | 532 kts | 41° |
| 2026-05-07 09:09 | 18.69748 | -138.17390 | 38988 ft | 531 kts | 41° |
| 2026-05-07 09:09 | 18.72303 | -138.14561 | 39100 ft | 529 kts | 41° |
| 2026-05-07 09:09 | 18.77302 | -138.09015 | 39123 ft | 524 kts | 41° |
| 2026-05-07 09:10 | 18.82341 | -138.03425 | 39104 ft | 526 kts | 41° |
| 2026-05-07 09:10 | 18.87369 | -137.97801 | 39138 ft | 527 kts | 41° |
| 2026-05-07 09:11 | 18.92370 | -137.92213 | 39124 ft | 522 kts | 41° |
| 2026-05-07 09:11 | 18.97378 | -137.86626 | 39108 ft | 521 kts | 41° |
| 2026-05-07 09:12 | 19.02360 | -137.81066 | 39103 ft | 521 kts | 41° |
| 2026-05-07 09:12 | 19.07341 | -137.75499 | 39097 ft | 521 kts | 41° |
| 2026-05-07 09:13 | 19.12324 | -137.69931 | 39126 ft | 530 kts | 41° |
| 2026-05-07 09:13 | 19.17380 | -137.64267 | 39127 ft | 529 kts | 41° |
| 2026-05-07 09:14 | 19.22435 | -137.58598 | 39129 ft | 529 kts | 41° |
| 2026-05-07 09:14 | 19.27494 | -137.52919 | 39132 ft | 530 kts | 41° |
| 2026-05-07 09:15 | 19.32548 | -137.47241 | 39131 ft | 529 kts | 41° |
| 2026-05-07 09:15 | 19.37596 | -137.41563 | 39136 ft | 529 kts | 41° |
| 2026-05-07 09:16 | 19.42640 | -137.35885 | 39145 ft | 528 kts | 41° |
| 2026-05-07 09:16 | 19.47647 | -137.30243 | 39124 ft | 530 kts | 41° |
| 2026-05-07 09:17 | 19.52728 | -137.24514 | 39126 ft | 530 kts | 41° |
| 2026-05-07 09:17 | 19.57744 | -137.18851 | 39130 ft | 530 kts | 41° |
| 2026-05-07 09:18 | 19.62794 | -137.13144 | 39133 ft | 531 kts | 41° |
| 2026-05-07 09:18 | 19.67860 | -137.07413 | 39144 ft | 532 kts | 40° |
| 2026-05-07 09:19 | 19.72922 | -137.01682 | 39143 ft | 532 kts | 40° |
| 2026-05-07 09:19 | 19.77903 | -136.96036 | 39137 ft | 532 kts | 40° |
| 2026-05-07 09:20 | 19.82960 | -136.90297 | 39173 ft | 532 kts | 40° |
| 2026-05-07 09:20 | 19.87977 | -136.84600 | 39174 ft | 531 kts | 40° |
| 2026-05-07 09:21 | 19.93015 | -136.78872 | 39169 ft | 529 kts | 40° |
| 2026-05-07 09:21 | 19.98005 | -136.73193 | 39157 ft | 528 kts | 40° |
| 2026-05-07 09:22 | 20.03020 | -136.67481 | 39161 ft | 528 kts | 39° |
| 2026-05-07 09:22 | 20.08031 | -136.61768 | 39141 ft | 527 kts | 39° |
| 2026-05-07 09:23 | 20.13027 | -136.56066 | 39142 ft | 526 kts | 39° |
| 2026-05-07 09:23 | 20.18024 | -136.50357 | 39136 ft | 526 kts | 39° |
| 2026-05-07 09:24 | 20.23007 | -136.44658 | 39138 ft | 526 kts | 39° |
| 2026-05-07 09:24 | 20.27991 | -136.38953 | 39142 ft | 526 kts | 39° |
| 2026-05-07 09:25 | 20.32966 | -136.33251 | 39136 ft | 526 kts | 39° |
| 2026-05-07 09:25 | 20.37946 | -136.27538 | 39151 ft | 526 kts | 39° |
| 2026-05-07 09:26 | 20.42901 | -136.21850 | 39148 ft | 527 kts | 39° |
| 2026-05-07 09:26 | 20.47890 | -136.16114 | 39153 ft | 527 kts | 39° |
| 2026-05-07 09:27 | 20.52876 | -136.10377 | 39163 ft | 527 kts | 39° |
| 2026-05-07 09:28 | 20.60365 | -136.01749 | 39157 ft | 529 kts | 39° |
| 2026-05-07 09:28 | 20.65367 | -135.95978 | 39169 ft | 529 kts | 39° |
| 2026-05-07 09:29 | 20.70373 | -135.90197 | 39174 ft | 529 kts | 39° |
| 2026-05-07 09:29 | 20.75338 | -135.84457 | 39168 ft | 530 kts | 39° |
| 2026-05-07 09:30 | 20.80338 | -135.78670 | 39166 ft | 530 kts | 39° |
| 2026-05-07 09:30 | 20.85330 | -135.72887 | 39173 ft | 529 kts | 39° |
| 2026-05-07 09:31 | 20.90318 | -135.67103 | 39177 ft | 529 kts | 39° |
| 2026-05-07 09:31 | 20.95309 | -135.61309 | 39165 ft | 529 kts | 39° |
| 2026-05-07 09:32 | 21.00299 | -135.55509 | 39167 ft | 529 kts | 39° |
| 2026-05-07 09:32 | 21.05282 | -135.49712 | 39166 ft | 529 kts | 39° |
| 2026-05-07 09:33 | 21.10267 | -135.43907 | 39167 ft | 529 kts | 39° |
| 2026-05-07 09:33 | 21.15246 | -135.38102 | 39166 ft | 529 kts | 39° |
| 2026-05-07 09:34 | 21.20193 | -135.32328 | 39170 ft | 529 kts | 39° |
| 2026-05-07 09:34 | 21.25170 | -135.26513 | 39165 ft | 529 kts | 39° |
| 2026-05-07 09:35 | 21.30147 | -135.20693 | 39167 ft | 529 kts | 39° |
| 2026-05-07 09:35 | 21.35126 | -135.14862 | 39164 ft | 529 kts | 39° |
| 2026-05-07 09:36 | 21.40101 | -135.09030 | 39190 ft | 529 kts | 39° |
| 2026-05-07 09:36 | 21.45079 | -135.03190 | 39175 ft | 530 kts | 40° |
| 2026-05-07 09:37 | 21.50049 | -134.97351 | 39177 ft | 530 kts | 40° |
| 2026-05-07 09:37 | 21.55020 | -134.91505 | 39176 ft | 529 kts | 40° |
| 2026-05-07 09:38 | 21.59979 | -134.85666 | 39176 ft | 529 kts | 40° |
| 2026-05-07 09:38 | 21.64940 | -134.79820 | 39174 ft | 529 kts | 40° |
| 2026-05-07 09:39 | 21.69902 | -134.73966 | 39187 ft | 529 kts | 41° |
| 2026-05-07 09:39 | 21.74823 | -134.68153 | 39185 ft | 528 kts | 41° |
| 2026-05-07 09:40 | 21.79770 | -134.62302 | 39180 ft | 528 kts | 41° |
| 2026-05-07 09:40 | 21.83876 | -134.57444 | 39183 ft | 527 kts | 41° |
| 2026-05-07 09:41 | 21.88830 | -134.51573 | 39179 ft | 526 kts | 41° |
| 2026-05-07 09:41 | 21.93716 | -134.45777 | 39173 ft | 525 kts | 41° |
| 2026-05-07 09:42 | 21.98626 | -134.39946 | 39181 ft | 525 kts | 41° |
| 2026-05-07 09:42 | 22.03525 | -134.34123 | 39175 ft | 524 kts | 41° |
| 2026-05-07 09:43 | 22.08417 | -134.28301 | 39188 ft | 523 kts | 42° |
| 2026-05-07 09:43 | 22.13299 | -134.22483 | 39200 ft | 522 kts | 42° |
| 2026-05-07 09:44 | 22.18169 | -134.16674 | 39188 ft | 521 kts | 43° |
| 2026-05-07 09:44 | 22.23027 | -134.10874 | 39178 ft | 520 kts | 43° |
| 2026-05-07 09:45 | 22.27874 | -134.05079 | 39178 ft | 519 kts | 43° |
| 2026-05-07 09:45 | 22.32721 | -133.99278 | 39170 ft | 519 kts | 43° |
| 2026-05-07 09:46 | 22.37518 | -133.93531 | 39169 ft | 518 kts | 43° |
| 2026-05-07 09:46 | 22.42343 | -133.87744 | 39168 ft | 518 kts | 43° |
| 2026-05-07 09:47 | 22.47164 | -133.81955 | 39175 ft | 518 kts | 43° |
| 2026-05-07 09:47 | 22.51984 | -133.76160 | 39191 ft | 517 kts | 43° |
| 2026-05-07 09:48 | 22.56798 | -133.70366 | 39187 ft | 517 kts | 43° |
| 2026-05-07 09:48 | 22.61579 | -133.64605 | 39180 ft | 516 kts | 43° |
| 2026-05-07 09:49 | 22.66380 | -133.58815 | 39179 ft | 516 kts | 43° |
| 2026-05-07 09:49 | 22.71138 | -133.53070 | 39178 ft | 516 kts | 43° |
| 2026-05-07 09:50 | 22.75932 | -133.47273 | 39174 ft | 516 kts | 43° |
| 2026-05-07 09:50 | 22.80721 | -133.41478 | 39182 ft | 516 kts | 44° |
| 2026-05-07 09:51 | 22.85507 | -133.35678 | 39180 ft | 516 kts | 44° |
| 2026-05-07 09:51 | 22.90299 | -133.29865 | 39192 ft | 516 kts | 44° |
| 2026-05-07 09:52 | 22.95084 | -133.24053 | 39188 ft | 516 kts | 44° |
| 2026-05-07 09:52 | 22.99829 | -133.18283 | 39193 ft | 516 kts | 44° |
| 2026-05-07 09:53 | 23.04604 | -133.12471 | 39182 ft | 515 kts | 44° |
| 2026-05-07 09:53 | 23.09372 | -133.06659 | 39182 ft | 515 kts | 44° |
| 2026-05-07 09:54 | 23.14132 | -133.00852 | 39190 ft | 515 kts | 44° |
| 2026-05-07 09:54 | 23.18883 | -132.95049 | 39187 ft | 514 kts | 44° |
| 2026-05-07 09:55 | 23.23638 | -132.89233 | 39191 ft | 514 kts | 44° |
| 2026-05-07 09:55 | 23.28392 | -132.83413 | 39207 ft | 513 kts | 44° |
| 2026-05-07 09:56 | 23.33127 | -132.77608 | 39192 ft | 513 kts | 44° |
| 2026-05-07 09:56 | 23.37833 | -132.71834 | 39195 ft | 512 kts | 44° |
| 2026-05-07 09:57 | 23.42551 | -132.66037 | 39187 ft | 511 kts | 44° |
| 2026-05-07 09:57 | 23.47266 | -132.60238 | 39199 ft | 511 kts | 45° |
| 2026-05-07 09:58 | 23.51974 | -132.54439 | 39193 ft | 511 kts | 45° |
| 2026-05-07 09:58 | 23.56678 | -132.48639 | 39191 ft | 510 kts | 45° |
| 2026-05-07 09:59 | 23.61387 | -132.42827 | 39192 ft | 510 kts | 45° |
| 2026-05-07 09:59 | 23.66084 | -132.37022 | 39201 ft | 510 kts | 45° |
| 2026-05-07 10:00 | 23.70772 | -132.31221 | 39198 ft | 510 kts | 45° |
| 2026-05-07 10:00 | 23.75458 | -132.25417 | 39199 ft | 509 kts | 45° |
| 2026-05-07 10:01 | 23.80143 | -132.19606 | 39211 ft | 509 kts | 45° |
| 2026-05-07 10:01 | 23.84793 | -132.13832 | 39205 ft | 509 kts | 45° |
| 2026-05-07 10:02 | 23.89467 | -132.08021 | 39204 ft | 509 kts | 45° |
| 2026-05-07 10:02 | 23.94138 | -132.02207 | 39202 ft | 509 kts | 45° |
| 2026-05-07 10:03 | 23.98809 | -131.96387 | 39211 ft | 508 kts | 45° |
| 2026-05-07 10:03 | 24.03474 | -131.90567 | 39207 ft | 508 kts | 45° |
| 2026-05-07 10:04 | 24.08098 | -131.84791 | 39215 ft | 507 kts | 45° |
| 2026-05-07 10:04 | 24.12741 | -131.78984 | 39211 ft | 506 kts | 45° |
| 2026-05-07 10:05 | 24.17374 | -131.73182 | 39208 ft | 506 kts | 45° |
| 2026-05-07 10:05 | 24.22002 | -131.67383 | 39204 ft | 505 kts | 45° |
| 2026-05-07 10:06 | 24.26622 | -131.61589 | 39204 ft | 504 kts | 45° |
| 2026-05-07 10:06 | 24.31241 | -131.55790 | 39203 ft | 504 kts | 45° |
| 2026-05-07 10:07 | 24.35842 | -131.50005 | 39200 ft | 503 kts | 45° |
| 2026-05-07 10:07 | 24.40435 | -131.44224 | 39197 ft | 503 kts | 45° |
| 2026-05-07 10:08 | 24.45004 | -131.38460 | 39196 ft | 503 kts | 46° |
| 2026-05-07 10:08 | 24.49589 | -131.32651 | 39217 ft | 503 kts | 46° |
| 2026-05-07 10:09 | 24.54177 | -131.26857 | 39216 ft | 502 kts | 46° |
| 2026-05-07 10:09 | 24.58763 | -131.21068 | 39210 ft | 501 kts | 46° |
| 2026-05-07 10:10 | 24.63336 | -131.15291 | 39205 ft | 501 kts | 46° |
| 2026-05-07 10:10 | 24.67902 | -131.09516 | 39205 ft | 500 kts | 46° |
| 2026-05-07 10:11 | 24.72471 | -131.03728 | 39199 ft | 500 kts | 46° |
| 2026-05-07 10:11 | 24.77028 | -130.97950 | 39200 ft | 500 kts | 46° |
| 2026-05-07 10:12 | 24.81582 | -130.92166 | 39198 ft | 500 kts | 46° |
| 2026-05-07 10:12 | 24.86129 | -130.86381 | 39206 ft | 500 kts | 46° |
| 2026-05-07 10:13 | 24.90675 | -130.80591 | 39211 ft | 499 kts | 46° |
| 2026-05-07 10:13 | 24.95184 | -130.74840 | 39209 ft | 499 kts | 46° |
| 2026-05-07 10:14 | 24.99714 | -130.69055 | 39207 ft | 498 kts | 46° |
| 2026-05-07 10:14 | 25.04242 | -130.63266 | 39203 ft | 498 kts | 46° |
| 2026-05-07 10:15 | 25.08757 | -130.57487 | 39205 ft | 498 kts | 46° |
| 2026-05-07 10:15 | 25.13273 | -130.51699 | 39203 ft | 497 kts | 46° |
| 2026-05-07 10:16 | 25.17789 | -130.45904 | 39211 ft | 497 kts | 46° |
| 2026-05-07 10:16 | 25.22295 | -130.40114 | 39207 ft | 497 kts | 46° |
| 2026-05-07 10:17 | 25.26806 | -130.34312 | 39204 ft | 497 kts | 46° |
| 2026-05-07 10:17 | 25.31311 | -130.28508 | 39213 ft | 497 kts | 46° |
| 2026-05-07 10:18 | 25.35810 | -130.22706 | 39223 ft | 496 kts | 46° |
| 2026-05-07 10:18 | 25.40273 | -130.16944 | 39218 ft | 496 kts | 46° |
| 2026-05-07 10:19 | 25.44749 | -130.11157 | 39211 ft | 495 kts | 46° |
| 2026-05-07 10:19 | 25.49230 | -130.05356 | 39209 ft | 494 kts | 46° |
| 2026-05-07 10:20 | 25.53695 | -129.99569 | 39199 ft | 494 kts | 46° |
| 2026-05-07 10:20 | 25.58149 | -129.93788 | 39207 ft | 493 kts | 46° |
| 2026-05-07 10:21 | 25.62602 | -129.88003 | 39202 ft | 493 kts | 46° |
| 2026-05-07 10:21 | 25.67052 | -129.82213 | 39201 ft | 493 kts | 46° |
| 2026-05-07 10:22 | 25.71490 | -129.76432 | 39205 ft | 493 kts | 46° |
| 2026-05-07 10:22 | 25.75900 | -129.70680 | 39218 ft | 492 kts | 46° |
| 2026-05-07 10:23 | 25.80328 | -129.64898 | 39215 ft | 492 kts | 46° |
| 2026-05-07 10:23 | 25.84753 | -129.59112 | 39211 ft | 491 kts | 46° |
| 2026-05-07 10:24 | 25.89165 | -129.53335 | 39220 ft | 491 kts | 46° |
| 2026-05-07 10:24 | 25.93574 | -129.47556 | 39216 ft | 490 kts | 46° |
| 2026-05-07 10:25 | 25.97984 | -129.41768 | 39212 ft | 490 kts | 46° |
| 2026-05-07 10:25 | 26.02378 | -129.35994 | 39207 ft | 489 kts | 46° |
| 2026-05-07 10:26 | 26.06771 | -129.30212 | 39208 ft | 489 kts | 46° |
| 2026-05-07 10:26 | 26.11138 | -129.24459 | 39207 ft | 489 kts | 46° |
| 2026-05-07 10:27 | 26.14782 | -129.19652 | 39222 ft | 488 kts | 46° |
| 2026-05-07 10:27 | 26.19152 | -129.13880 | 39227 ft | 487 kts | 46° |
| 2026-05-07 10:28 | 26.23516 | -129.08109 | 39219 ft | 487 kts | 46° |
| 2026-05-07 10:28 | 26.27876 | -129.02337 | 39215 ft | 486 kts | 46° |
| 2026-05-07 10:29 | 26.32227 | -128.96568 | 39208 ft | 486 kts | 46° |
| 2026-05-07 10:29 | 26.36569 | -128.90805 | 39206 ft | 485 kts | 46° |
| 2026-05-07 10:30 | 26.43083 | -128.82145 | 39208 ft | 485 kts | 46° |
| 2026-05-07 10:30 | 26.47394 | -128.76404 | 39206 ft | 485 kts | 46° |
| 2026-05-07 10:31 | 26.51727 | -128.70627 | 39210 ft | 485 kts | 46° |
| 2026-05-07 10:31 | 26.56060 | -128.64842 | 39240 ft | 485 kts | 46° |
| 2026-05-07 10:32 | 26.60396 | -128.59045 | 39209 ft | 485 kts | 46° |
| 2026-05-07 10:32 | 26.64722 | -128.53254 | 39208 ft | 486 kts | 46° |
| 2026-05-07 10:33 | 26.69051 | -128.47452 | 39209 ft | 486 kts | 46° |
| 2026-05-07 10:33 | 26.73380 | -128.41642 | 39211 ft | 486 kts | 46° |
| 2026-05-07 10:34 | 26.77682 | -128.35861 | 39209 ft | 486 kts | 46° |
| 2026-05-07 10:34 | 26.82009 | -128.30039 | 39211 ft | 486 kts | 46° |
| 2026-05-07 10:35 | 26.86332 | -128.24214 | 39212 ft | 486 kts | 46° |
| 2026-05-07 10:35 | 26.90657 | -128.18380 | 39227 ft | 486 kts | 46° |
| 2026-05-07 10:36 | 26.94984 | -128.12534 | 39210 ft | 487 kts | 46° |
| 2026-05-07 10:36 | 26.99316 | -128.06675 | 39225 ft | 487 kts | 47° |
| 2026-05-07 10:37 | 27.03609 | -128.00860 | 39221 ft | 487 kts | 47° |
| 2026-05-07 10:37 | 27.07923 | -127.95008 | 39228 ft | 487 kts | 47° |
| 2026-05-07 10:38 | 27.12244 | -127.89139 | 39214 ft | 487 kts | 47° |
| 2026-05-07 10:38 | 27.16560 | -127.83270 | 39215 ft | 487 kts | 47° |
| 2026-05-07 10:39 | 27.20874 | -127.77396 | 39216 ft | 487 kts | 47° |
| 2026-05-07 10:39 | 27.25185 | -127.71517 | 39228 ft | 487 kts | 47° |
| 2026-05-07 10:40 | 27.29497 | -127.65630 | 39215 ft | 487 kts | 48° |
| 2026-05-07 10:40 | 27.33803 | -127.59743 | 39213 ft | 487 kts | 48° |
| 2026-05-07 10:41 | 27.38099 | -127.53860 | 39213 ft | 487 kts | 48° |
| 2026-05-07 10:41 | 27.42400 | -127.47964 | 39220 ft | 487 kts | 48° |
| 2026-05-07 10:42 | 27.46695 | -127.42068 | 39219 ft | 487 kts | 48° |
| 2026-05-07 10:42 | 27.50962 | -127.36202 | 39217 ft | 487 kts | 48° |
| 2026-05-07 10:43 | 27.55245 | -127.30307 | 39215 ft | 486 kts | 48° |
| 2026-05-07 10:43 | 27.59531 | -127.24399 | 39219 ft | 486 kts | 48° |
| 2026-05-07 10:44 | 27.63808 | -127.18495 | 39215 ft | 486 kts | 48° |
| 2026-05-07 10:44 | 27.68088 | -127.12579 | 39215 ft | 486 kts | 48° |
| 2026-05-07 10:45 | 27.72369 | -127.06653 | 39219 ft | 486 kts | 48° |
| 2026-05-07 10:45 | 27.76639 | -127.00736 | 39219 ft | 486 kts | 48° |
| 2026-05-07 10:46 | 27.80882 | -126.94847 | 39221 ft | 486 kts | 48° |
| 2026-05-07 10:46 | 27.85146 | -126.88921 | 39221 ft | 486 kts | 48° |
| 2026-05-07 10:47 | 27.89407 | -126.82991 | 39220 ft | 486 kts | 48° |
| 2026-05-07 10:47 | 27.93662 | -126.77060 | 39219 ft | 486 kts | 48° |
| 2026-05-07 10:48 | 27.97919 | -126.71120 | 39218 ft | 486 kts | 48° |
| 2026-05-07 10:48 | 28.02172 | -126.65176 | 39219 ft | 486 kts | 48° |
| 2026-05-07 10:49 | 28.06420 | -126.59231 | 39216 ft | 486 kts | 48° |
| 2026-05-07 10:49 | 28.10669 | -126.53276 | 39218 ft | 486 kts | 48° |
| 2026-05-07 10:50 | 28.14915 | -126.47318 | 39216 ft | 486 kts | 48° |
| 2026-05-07 10:50 | 28.19129 | -126.41396 | 39215 ft | 486 kts | 48° |
| 2026-05-07 10:51 | 28.23379 | -126.35415 | 39220 ft | 486 kts | 48° |
| 2026-05-07 10:51 | 28.27618 | -126.29440 | 39223 ft | 486 kts | 48° |
| 2026-05-07 10:52 | 28.31860 | -126.23454 | 39218 ft | 486 kts | 48° |
| 2026-05-07 10:52 | 28.36088 | -126.17478 | 39216 ft | 485 kts | 48° |
| 2026-05-07 10:53 | 28.40311 | -126.11501 | 39210 ft | 485 kts | 48° |
| 2026-05-07 10:53 | 28.44534 | -126.05517 | 39209 ft | 485 kts | 49° |
| 2026-05-07 10:54 | 28.48735 | -125.99555 | 39209 ft | 485 kts | 49° |
| 2026-05-07 10:54 | 28.52945 | -125.93571 | 39209 ft | 485 kts | 49° |
| 2026-05-07 10:55 | 28.57159 | -125.87573 | 39214 ft | 485 kts | 49° |
| 2026-05-07 10:55 | 28.61368 | -125.81573 | 39212 ft | 485 kts | 49° |
| 2026-05-07 10:56 | 28.65575 | -125.75569 | 39215 ft | 485 kts | 49° |
| 2026-05-07 10:56 | 28.69780 | -125.69557 | 39223 ft | 485 kts | 49° |
| 2026-05-07 10:57 | 28.73981 | -125.63544 | 39216 ft | 485 kts | 49° |
| 2026-05-07 10:57 | 28.78176 | -125.57530 | 39216 ft | 484 kts | 49° |
| 2026-05-07 10:58 | 28.82340 | -125.51553 | 39212 ft | 484 kts | 49° |
| 2026-05-07 10:58 | 28.86527 | -125.45532 | 39214 ft | 484 kts | 49° |
| 2026-05-07 10:59 | 28.90709 | -125.39511 | 39211 ft | 483 kts | 49° |
| 2026-05-07 10:59 | 28.94884 | -125.33492 | 39210 ft | 483 kts | 49° |
| 2026-05-07 11:00 | 28.99057 | -125.27466 | 39211 ft | 483 kts | 49° |
| 2026-05-07 11:00 | 29.03221 | -125.21445 | 39212 ft | 483 kts | 49° |
| 2026-05-07 11:01 | 29.07378 | -125.15426 | 39202 ft | 483 kts | 49° |
| 2026-05-07 11:01 | 29.11502 | -125.09444 | 39199 ft | 482 kts | 50° |
| 2026-05-07 11:02 | 29.15661 | -125.03404 | 39200 ft | 482 kts | 50° |
| 2026-05-07 11:02 | 29.19807 | -124.97374 | 39208 ft | 482 kts | 50° |
| 2026-05-07 11:03 | 29.23953 | -124.91336 | 39205 ft | 482 kts | 50° |
| 2026-05-07 11:03 | 29.28087 | -124.85305 | 39215 ft | 482 kts | 50° |
| 2026-05-07 11:04 | 29.32228 | -124.79256 | 39213 ft | 482 kts | 50° |
| 2026-05-07 11:04 | 29.36357 | -124.73215 | 39217 ft | 482 kts | 50° |
| 2026-05-07 11:05 | 29.40487 | -124.67164 | 39213 ft | 481 kts | 50° |
| 2026-05-07 11:05 | 29.44608 | -124.61117 | 39209 ft | 481 kts | 50° |
| 2026-05-07 11:06 | 29.48729 | -124.55061 | 39210 ft | 481 kts | 50° |
| 2026-05-07 11:06 | 29.52813 | -124.49052 | 39216 ft | 480 kts | 50° |
| 2026-05-07 11:07 | 29.56919 | -124.43000 | 39218 ft | 479 kts | 51° |
| 2026-05-07 11:07 | 29.61008 | -124.36965 | 39212 ft | 478 kts | 50° |
| 2026-05-07 11:08 | 29.65091 | -124.30929 | 39206 ft | 478 kts | 51° |
| 2026-05-07 11:08 | 29.69169 | -124.24893 | 39208 ft | 477 kts | 51° |
| 2026-05-07 11:09 | 29.73240 | -124.18857 | 39208 ft | 477 kts | 51° |
| 2026-05-07 11:09 | 29.77299 | -124.12831 | 39215 ft | 476 kts | 51° |
| 2026-05-07 11:10 | 29.81351 | -124.06804 | 39199 ft | 476 kts | 51° |
| 2026-05-07 11:10 | 29.85370 | -124.00819 | 39207 ft | 475 kts | 51° |
| 2026-05-07 11:11 | 29.89411 | -123.94792 | 39200 ft | 475 kts | 51° |
| 2026-05-07 11:11 | 29.93440 | -123.88775 | 39209 ft | 474 kts | 52° |
| 2026-05-07 11:12 | 29.97460 | -123.82762 | 39206 ft | 473 kts | 51° |
| 2026-05-07 11:12 | 30.01479 | -123.76741 | 39201 ft | 473 kts | 52° |
| 2026-05-07 11:13 | 30.05490 | -123.70725 | 39201 ft | 472 kts | 52° |
| 2026-05-07 11:13 | 30.09483 | -123.64724 | 39203 ft | 472 kts | 52° |
| 2026-05-07 11:14 | 30.13493 | -123.58690 | 39200 ft | 472 kts | 52° |
| 2026-05-07 11:14 | 30.17486 | -123.52672 | 39194 ft | 471 kts | 52° |
| 2026-05-07 11:15 | 30.21447 | -123.46695 | 39198 ft | 471 kts | 52° |
| 2026-05-07 11:15 | 30.25430 | -123.40674 | 39194 ft | 471 kts | 52° |
| 2026-05-07 11:16 | 30.28760 | -123.35637 | 39192 ft | 471 kts | 52° |
| 2026-05-07 11:16 | 30.32713 | -123.29650 | 39187 ft | 471 kts | 52° |
| 2026-05-07 11:17 | 30.36690 | -123.23620 | 39189 ft | 470 kts | 52° |
| 2026-05-07 11:17 | 30.40665 | -123.17584 | 39191 ft | 471 kts | 52° |
| 2026-05-07 11:18 | 30.44638 | -123.11542 | 39193 ft | 471 kts | 52° |
| 2026-05-07 11:18 | 30.48606 | -123.05497 | 39191 ft | 471 kts | 52° |
| 2026-05-07 11:19 | 30.52574 | -122.99430 | 39197 ft | 471 kts | 52° |
| 2026-05-07 11:19 | 30.56458 | -122.93372 | 39191 ft | 471 kts | 51° |
| 2026-05-07 11:20 | 30.60462 | -122.87346 | 39195 ft | 471 kts | 51° |
| 2026-05-07 11:20 | 30.64450 | -122.81289 | 39195 ft | 472 kts | 52° |
| 2026-05-07 11:21 | 30.68421 | -122.75219 | 39192 ft | 472 kts | 52° |
| 2026-05-07 11:21 | 30.72387 | -122.69143 | 39193 ft | 472 kts | 52° |
| 2026-05-07 11:22 | 30.76349 | -122.63064 | 39194 ft | 471 kts | 52° |
| 2026-05-07 11:22 | 30.80305 | -122.56984 | 39187 ft | 471 kts | 52° |
| 2026-05-07 11:23 | 30.84256 | -122.50904 | 39186 ft | 471 kts | 52° |
| 2026-05-07 11:23 | 30.88209 | -122.44810 | 39186 ft | 471 kts | 52° |
| 2026-05-07 11:24 | 30.92132 | -122.38755 | 39180 ft | 471 kts | 52° |
| 2026-05-07 11:24 | 30.96071 | -122.32664 | 39180 ft | 470 kts | 52° |
| 2026-05-07 11:25 | 31.00007 | -122.26569 | 39178 ft | 470 kts | 52° |
| 2026-05-07 11:25 | 31.03939 | -122.20471 | 39176 ft | 470 kts | 52° |
| 2026-05-07 11:26 | 31.07864 | -122.14373 | 39161 ft | 470 kts | 52° |
| 2026-05-07 11:26 | 31.11784 | -122.08275 | 39169 ft | 470 kts | 52° |
| 2026-05-07 11:27 | 31.15686 | -122.02195 | 39171 ft | 470 kts | 52° |
| 2026-05-07 11:27 | 31.19604 | -121.96080 | 39178 ft | 470 kts | 52° |
| 2026-05-07 11:28 | 31.23518 | -121.89962 | 39170 ft | 469 kts | 52° |
| 2026-05-07 11:28 | 31.27427 | -121.83844 | 39161 ft | 469 kts | 52° |
| 2026-05-07 11:29 | 31.31334 | -121.77717 | 39177 ft | 469 kts | 52° |
| 2026-05-07 11:29 | 31.35235 | -121.71590 | 39154 ft | 469 kts | 52° |
| 2026-05-07 11:30 | 31.39125 | -121.65471 | 39163 ft | 469 kts | 52° |
| 2026-05-07 11:30 | 31.43015 | -121.59343 | 39166 ft | 468 kts | 52° |
| 2026-05-07 11:31 | 31.46896 | -121.53218 | 39160 ft | 468 kts | 52° |
| 2026-05-07 11:31 | 31.50749 | -121.47130 | 39160 ft | 468 kts | 52° |
| 2026-05-07 11:32 | 31.56122 | -121.37562 | 39155 ft | 470 kts | 61° |
| 2026-05-07 11:33 | 31.58747 | -121.30531 | 39155 ft | 471 kts | 66° |
| 2026-05-07 11:33 | 31.61226 | -121.23414 | 39166 ft | 471 kts | 66° |
| 2026-05-07 11:34 | 31.63705 | -121.16289 | 39161 ft | 471 kts | 66° |
| 2026-05-07 11:34 | 31.66172 | -121.09154 | 39164 ft | 471 kts | 66° |
| 2026-05-07 11:35 | 31.68609 | -121.02081 | 39144 ft | 471 kts | 66° |
| 2026-05-07 11:35 | 31.71100 | -120.94840 | 39137 ft | 480 kts | 66° |
| 2026-05-07 11:36 | 31.73549 | -120.87695 | 39143 ft | 467 kts | 66° |
| 2026-05-07 11:36 | 31.75988 | -120.80573 | 39142 ft | 471 kts | 66° |
| 2026-05-07 11:37 | 31.78416 | -120.73468 | 39138 ft | 471 kts | 66° |
| 2026-05-07 11:37 | 31.80854 | -120.66316 | 39136 ft | 471 kts | 66° |
| 2026-05-07 11:38 | 31.83284 | -120.59171 | 39128 ft | 471 kts | 66° |
| 2026-05-07 11:38 | 31.85716 | -120.52007 | 39126 ft | 471 kts | 66° |
| 2026-05-07 11:39 | 31.88138 | -120.44855 | 39126 ft | 470 kts | 66° |
| 2026-05-07 11:39 | 31.90556 | -120.37698 | 39129 ft | 470 kts | 66° |
| 2026-05-07 11:40 | 31.93138 | -120.30648 | 39123 ft | 468 kts | 60° |
| 2026-05-07 11:40 | 31.96615 | -120.24195 | 39120 ft | 466 kts | 51° |
| 2026-05-07 11:41 | 32.00872 | -120.18486 | 39115 ft | 464 kts | 45° |
| 2026-05-07 11:41 | 32.05279 | -120.12923 | 39110 ft | 464 kts | 45° |
| 2026-05-07 11:42 | 32.09679 | -120.07348 | 39116 ft | 464 kts | 45° |
| 2026-05-07 11:42 | 32.14082 | -120.01773 | 39113 ft | 464 kts | 45° |
| 2026-05-07 11:43 | 32.18479 | -119.96201 | 39112 ft | 464 kts | 45° |
| 2026-05-07 11:43 | 32.22853 | -119.90649 | 39112 ft | 465 kts | 45° |
| 2026-05-07 11:44 | 32.27253 | -119.85056 | 39112 ft | 465 kts | 45° |
| 2026-05-07 11:44 | 32.31650 | -119.79457 | 39118 ft | 465 kts | 45° |
| 2026-05-07 11:45 | 32.36045 | -119.73853 | 39112 ft | 465 kts | 45° |
| 2026-05-07 11:45 | 32.40441 | -119.68240 | 39106 ft | 464 kts | 45° |
| 2026-05-07 11:45 | 32.42631 | -119.65439 | 38984 ft | 462 kts | 45° |
| 2026-05-07 11:46 | 32.44799 | -119.62663 | 38750 ft | 456 kts | 45° |
| 2026-05-07 11:46 | 32.46945 | -119.59915 | 38481 ft | 455 kts | 45° |
| 2026-05-07 11:46 | 32.49097 | -119.57158 | 38201 ft | 456 kts | 45° |
| 2026-05-07 11:46 | 32.51253 | -119.54393 | 37848 ft | 456 kts | 45° |
| 2026-05-07 11:47 | 32.53408 | -119.51628 | 37145 ft | 458 kts | 45° |
| 2026-05-07 11:47 | 32.55577 | -119.48843 | 36112 ft | 463 kts | 45° |
| 2026-05-07 11:47 | 32.57783 | -119.46009 | 34978 ft | 470 kts | 45° |
| 2026-05-07 11:47 | 32.60017 | -119.43137 | 33785 ft | 477 kts | 45° |
| 2026-05-07 11:48 | 32.62240 | -119.40275 | 32853 ft | 476 kts | 45° |
| 2026-05-07 11:48 | 32.64464 | -119.37407 | 32200 ft | 469 kts | 45° |
| 2026-05-07 11:48 | 32.66647 | -119.34589 | 31837 ft | 457 kts | 45° |
| 2026-05-07 11:48 | 32.68766 | -119.31851 | 31422 ft | 447 kts | 45° |
| 2026-05-07 11:49 | 32.70847 | -119.29163 | 31146 ft | 437 kts | 46° |
| 2026-05-07 11:49 | 32.74964 | -119.23843 | 31101 ft | 440 kts | 45° |
| 2026-05-07 11:50 | 32.79098 | -119.18493 | 31091 ft | 440 kts | 46° |
| 2026-05-07 11:50 | 32.83235 | -119.13128 | 31086 ft | 439 kts | 46° |
| 2026-05-07 11:51 | 32.87368 | -119.07761 | 31088 ft | 440 kts | 46° |
| 2026-05-07 11:51 | 32.89426 | -119.05086 | 30935 ft | 437 kts | 46° |
| 2026-05-07 11:51 | 32.91486 | -119.02406 | 30161 ft | 440 kts | 46° |
| 2026-05-07 11:51 | 32.93574 | -118.99688 | 28949 ft | 448 kts | 46° |
| 2026-05-07 11:52 | 32.95678 | -118.96947 | 28001 ft | 448 kts | 46° |
| 2026-05-07 11:52 | 32.97764 | -118.94225 | 27351 ft | 442 kts | 46° |
| 2026-05-07 11:52 | 32.99798 | -118.91569 | 26664 ft | 437 kts | 46° |
| 2026-05-07 11:52 | 33.01835 | -118.88908 | 25950 ft | 432 kts | 46° |
| 2026-05-07 11:53 | 33.03871 | -118.86246 | 25252 ft | 428 kts | 46° |
| 2026-05-07 11:53 | 33.05842 | -118.83668 | 24575 ft | 424 kts | 46° |
| 2026-05-07 11:53 | 33.07819 | -118.81081 | 23909 ft | 420 kts | 46° |
| 2026-05-07 11:53 | 33.09774 | -118.78521 | 23172 ft | 415 kts | 46° |
| 2026-05-07 11:54 | 33.11708 | -118.75987 | 22435 ft | 411 kts | 46° |
| 2026-05-07 11:54 | 33.13619 | -118.73479 | 21704 ft | 406 kts | 46° |
| 2026-05-07 11:54 | 33.15490 | -118.71023 | 21281 ft | 395 kts | 46° |
| 2026-05-07 11:54 | 33.17282 | -118.68668 | 21125 ft | 379 kts | 46° |
| 2026-05-07 11:55 | 33.19016 | -118.66386 | 20908 ft | 365 kts | 46° |
| 2026-05-07 11:55 | 33.20687 | -118.64097 | 20287 ft | 365 kts | 48° |
| 2026-05-07 11:55 | 33.22326 | -118.61772 | 19712 ft | 363 kts | 49° |
| 2026-05-07 11:55 | 33.23940 | -118.59475 | 19195 ft | 360 kts | 49° |
| 2026-05-07 11:56 | 33.25548 | -118.57194 | 18658 ft | 357 kts | 49° |
| 2026-05-07 11:56 | 33.27133 | -118.54957 | 18088 ft | 355 kts | 49° |
| 2026-05-07 11:56 | 33.28633 | -118.52844 | 17535 ft | 353 kts | 49° |
| 2026-05-07 11:56 | 33.30204 | -118.50632 | 16961 ft | 350 kts | 49° |
| 2026-05-07 11:57 | 33.31772 | -118.48424 | 16398 ft | 347 kts | 49° |
| 2026-05-07 11:57 | 33.33194 | -118.46135 | 15817 ft | 347 kts | 61° |
| 2026-05-07 11:57 | 33.33983 | -118.43434 | 15275 ft | 347 kts | 79° |
| 2026-05-07 11:57 | 33.34095 | -118.41490 | 14962 ft | 346 kts | 91° |
| 2026-05-07 11:58 | 33.34058 | -118.40859 | 14910 ft | 345 kts | 93° |